<?xml version="1.0" encoding="UTF-8" standalone="no" ?>
<gpx xmlns="http://www.topografix.com/GPX/1/1" xmlns:xsi="http://www.w3.org/2001/XMLSchema-instance" xsi:schemaLocation="http://www.topografix.com/GPX/1/1 http://www.topografix.com/GPX/1/1/gpx.xsd" version="1.1" creator="VisuGPX - https://www.visugpx.com">
  <metadata>
    <name>Boucle de Theizé en passant par Denicé </name>
    <desc><![CDATA[Très belle boucle en Beaujolais, en partant de Theizé, sens anti horaire, en passant par Pouilly le Monial, Liergues, Dénicé, Lacenas, Cogny, Ville sur Jarniou. Par de très petites routes, compter 2h cool en VAE. Première effectuée fin Octobre 2017. Le mois de Mai offre de belles couleurs verte.]]></desc>
  </metadata>
  <trk>
    <name><![CDATA[OR-8049991--Theizé:Theizé à Denicé par les vignes]]></name>
    <trkseg>
      <trkpt lat="45.93908" lon="4.61582">
        <ele>447</ele>
        <time>2017-10-26T09:48:41Z</time>
      </trkpt>
      <trkpt lat="45.93906" lon="4.61597">
        <ele>447</ele>
        <time>2017-10-26T09:50:41Z</time>
      </trkpt>
      <trkpt lat="45.93923" lon="4.61599">
        <ele>449</ele>
        <time>2017-10-26T09:52:41Z</time>
      </trkpt>
      <trkpt lat="45.93928" lon="4.61588">
        <ele>450</ele>
        <time>2017-10-26T09:54:41Z</time>
      </trkpt>
      <trkpt lat="45.93963" lon="4.61627">
        <ele>456</ele>
        <time>2017-10-26T09:56:41Z</time>
      </trkpt>
      <trkpt lat="45.9398" lon="4.61652">
        <ele>460</ele>
        <time>2017-10-26T09:58:41Z</time>
      </trkpt>
      <trkpt lat="45.93994" lon="4.61664">
        <ele>463</ele>
        <time>2017-10-26T10:00:41Z</time>
      </trkpt>
      <trkpt lat="45.94013" lon="4.61712">
        <ele>463</ele>
        <time>2017-10-26T10:02:41Z</time>
      </trkpt>
      <trkpt lat="45.94028" lon="4.61666">
        <ele>467</ele>
        <time>2017-10-26T10:04:41Z</time>
      </trkpt>
      <trkpt lat="45.94037" lon="4.61663">
        <ele>468</ele>
        <time>2017-10-26T10:06:41Z</time>
      </trkpt>
      <trkpt lat="45.94052" lon="4.61654">
        <ele>469</ele>
        <time>2017-10-26T10:08:41Z</time>
      </trkpt>
      <trkpt lat="45.94069" lon="4.61654">
        <ele>471</ele>
        <time>2017-10-26T10:10:41Z</time>
      </trkpt>
      <trkpt lat="45.94091" lon="4.61639">
        <ele>474</ele>
        <time>2017-10-26T10:12:41Z</time>
      </trkpt>
      <trkpt lat="45.94091" lon="4.61674">
        <ele>473</ele>
        <time>2017-10-26T10:14:41Z</time>
      </trkpt>
      <trkpt lat="45.94093" lon="4.61706">
        <ele>471</ele>
        <time>2017-10-26T10:16:41Z</time>
      </trkpt>
      <trkpt lat="45.94124" lon="4.61716">
        <ele>471</ele>
        <time>2017-10-26T10:18:41Z</time>
      </trkpt>
      <trkpt lat="45.94092" lon="4.61719">
        <ele>469</ele>
        <time>2017-10-26T10:20:41Z</time>
      </trkpt>
      <trkpt lat="45.94089" lon="4.61727">
        <ele>469</ele>
        <time>2017-10-26T10:22:41Z</time>
      </trkpt>
      <trkpt lat="45.94089" lon="4.61751">
        <ele>467</ele>
        <time>2017-10-26T10:24:41Z</time>
      </trkpt>
      <trkpt lat="45.94051" lon="4.61763">
        <ele>463</ele>
        <time>2017-10-26T10:26:41Z</time>
      </trkpt>
      <trkpt lat="45.94016" lon="4.6172">
        <ele>463</ele>
        <time>2017-10-26T10:28:41Z</time>
      </trkpt>
      <trkpt lat="45.93995" lon="4.61674">
        <ele>463</ele>
        <time>2017-10-26T10:30:41Z</time>
      </trkpt>
      <trkpt lat="45.93992" lon="4.61659">
        <ele>462</ele>
        <time>2017-10-26T10:32:41Z</time>
      </trkpt>
      <trkpt lat="45.93978" lon="4.61658">
        <ele>460</ele>
        <time>2017-10-26T10:34:41Z</time>
      </trkpt>
      <trkpt lat="45.93972" lon="4.61693">
        <ele>459</ele>
        <time>2017-10-26T10:36:41Z</time>
      </trkpt>
      <trkpt lat="45.9396" lon="4.61702">
        <ele>456</ele>
        <time>2017-10-26T10:38:41Z</time>
      </trkpt>
      <trkpt lat="45.93925" lon="4.61703">
        <ele>451</ele>
        <time>2017-10-26T10:40:41Z</time>
      </trkpt>
      <trkpt lat="45.93918" lon="4.61749">
        <ele>449</ele>
        <time>2017-10-26T10:42:41Z</time>
      </trkpt>
      <trkpt lat="45.93906" lon="4.61796">
        <ele>444</ele>
        <time>2017-10-26T10:44:41Z</time>
      </trkpt>
      <trkpt lat="45.93912" lon="4.61871">
        <ele>437</ele>
        <time>2017-10-26T10:46:41Z</time>
      </trkpt>
      <trkpt lat="45.93909" lon="4.6189">
        <ele>434</ele>
        <time>2017-10-26T10:48:41Z</time>
      </trkpt>
      <trkpt lat="45.93923" lon="4.61931">
        <ele>428</ele>
        <time>2017-10-26T10:50:41Z</time>
      </trkpt>
      <trkpt lat="45.93929" lon="4.61964">
        <ele>423</ele>
        <time>2017-10-26T10:52:41Z</time>
      </trkpt>
      <trkpt lat="45.93929" lon="4.61992">
        <ele>419</ele>
        <time>2017-10-26T10:54:41Z</time>
      </trkpt>
      <trkpt lat="45.93945" lon="4.62016">
        <ele>417</ele>
        <time>2017-10-26T10:56:41Z</time>
      </trkpt>
      <trkpt lat="45.93979" lon="4.62055">
        <ele>415</ele>
        <time>2017-10-26T10:58:41Z</time>
      </trkpt>
      <trkpt lat="45.93994" lon="4.62091">
        <ele>410</ele>
        <time>2017-10-26T11:00:41Z</time>
      </trkpt>
      <trkpt lat="45.94002" lon="4.62127">
        <ele>404</ele>
        <time>2017-10-26T11:02:41Z</time>
      </trkpt>
      <trkpt lat="45.94004" lon="4.62178">
        <ele>396</ele>
        <time>2017-10-26T11:04:41Z</time>
      </trkpt>
      <trkpt lat="45.9405" lon="4.6216">
        <ele>400</ele>
        <time>2017-10-26T11:06:41Z</time>
      </trkpt>
      <trkpt lat="45.94074" lon="4.62154">
        <ele>401</ele>
        <time>2017-10-26T11:08:41Z</time>
      </trkpt>
      <trkpt lat="45.94109" lon="4.62154">
        <ele>402</ele>
        <time>2017-10-26T11:10:41Z</time>
      </trkpt>
      <trkpt lat="45.94146" lon="4.62167">
        <ele>402</ele>
        <time>2017-10-26T11:12:41Z</time>
      </trkpt>
      <trkpt lat="45.94196" lon="4.6219">
        <ele>401</ele>
        <time>2017-10-26T11:14:41Z</time>
      </trkpt>
      <trkpt lat="45.94228" lon="4.62199">
        <ele>401</ele>
        <time>2017-10-26T11:16:41Z</time>
      </trkpt>
      <trkpt lat="45.94252" lon="4.62198">
        <ele>402</ele>
        <time>2017-10-26T11:18:41Z</time>
      </trkpt>
      <trkpt lat="45.94281" lon="4.62193">
        <ele>404</ele>
        <time>2017-10-26T11:20:41Z</time>
      </trkpt>
      <trkpt lat="45.94315" lon="4.62186">
        <ele>405</ele>
        <time>2017-10-26T11:22:41Z</time>
      </trkpt>
      <trkpt lat="45.94338" lon="4.62178">
        <ele>407</ele>
        <time>2017-10-26T11:24:41Z</time>
      </trkpt>
      <trkpt lat="45.94406" lon="4.6223">
        <ele>403</ele>
        <time>2017-10-26T11:26:41Z</time>
      </trkpt>
      <trkpt lat="45.94426" lon="4.62244">
        <ele>402</ele>
        <time>2017-10-26T11:28:41Z</time>
      </trkpt>
      <trkpt lat="45.94443" lon="4.62251">
        <ele>402</ele>
        <time>2017-10-26T11:30:41Z</time>
      </trkpt>
      <trkpt lat="45.94452" lon="4.62258">
        <ele>401</ele>
        <time>2017-10-26T11:32:41Z</time>
      </trkpt>
      <trkpt lat="45.94457" lon="4.62275">
        <ele>400</ele>
        <time>2017-10-26T11:34:41Z</time>
      </trkpt>
      <trkpt lat="45.94493" lon="4.62258">
        <ele>401</ele>
        <time>2017-10-26T11:36:41Z</time>
      </trkpt>
      <trkpt lat="45.94509" lon="4.62253">
        <ele>400</ele>
        <time>2017-10-26T11:38:41Z</time>
      </trkpt>
      <trkpt lat="45.94528" lon="4.6224">
        <ele>398</ele>
        <time>2017-10-26T11:40:41Z</time>
      </trkpt>
      <trkpt lat="45.94537" lon="4.62245">
        <ele>397</ele>
        <time>2017-10-26T11:42:41Z</time>
      </trkpt>
      <trkpt lat="45.94574" lon="4.62253">
        <ele>392</ele>
        <time>2017-10-26T11:44:41Z</time>
      </trkpt>
      <trkpt lat="45.94613" lon="4.6226">
        <ele>388</ele>
        <time>2017-10-26T11:46:41Z</time>
      </trkpt>
      <trkpt lat="45.94623" lon="4.62261">
        <ele>387</ele>
        <time>2017-10-26T11:48:41Z</time>
      </trkpt>
      <trkpt lat="45.94644" lon="4.62272">
        <ele>384</ele>
        <time>2017-10-26T11:50:41Z</time>
      </trkpt>
      <trkpt lat="45.947" lon="4.6228">
        <ele>378</ele>
        <time>2017-10-26T11:52:41Z</time>
      </trkpt>
      <trkpt lat="45.94719" lon="4.62284">
        <ele>376</ele>
        <time>2017-10-26T11:54:41Z</time>
      </trkpt>
      <trkpt lat="45.94712" lon="4.6232">
        <ele>377</ele>
        <time>2017-10-26T11:56:41Z</time>
      </trkpt>
      <trkpt lat="45.94712" lon="4.62335">
        <ele>377</ele>
        <time>2017-10-26T11:58:41Z</time>
      </trkpt>
      <trkpt lat="45.94725" lon="4.62349">
        <ele>375</ele>
        <time>2017-10-26T12:00:41Z</time>
      </trkpt>
      <trkpt lat="45.94748" lon="4.62395">
        <ele>372</ele>
        <time>2017-10-26T12:02:41Z</time>
      </trkpt>
      <trkpt lat="45.94754" lon="4.62406">
        <ele>372</ele>
        <time>2017-10-26T12:04:41Z</time>
      </trkpt>
      <trkpt lat="45.948" lon="4.62439">
        <ele>367</ele>
        <time>2017-10-26T12:06:41Z</time>
      </trkpt>
      <trkpt lat="45.94839" lon="4.62467">
        <ele>362</ele>
        <time>2017-10-26T12:08:41Z</time>
      </trkpt>
      <trkpt lat="45.94869" lon="4.62486">
        <ele>359</ele>
        <time>2017-10-26T12:10:41Z</time>
      </trkpt>
      <trkpt lat="45.94904" lon="4.62503">
        <ele>355</ele>
        <time>2017-10-26T12:12:41Z</time>
      </trkpt>
      <trkpt lat="45.94918" lon="4.62507">
        <ele>353</ele>
        <time>2017-10-26T12:14:41Z</time>
      </trkpt>
      <trkpt lat="45.94929" lon="4.62512">
        <ele>352</ele>
        <time>2017-10-26T12:16:41Z</time>
      </trkpt>
      <trkpt lat="45.94956" lon="4.62531">
        <ele>350</ele>
        <time>2017-10-26T12:18:41Z</time>
      </trkpt>
      <trkpt lat="45.95014" lon="4.6255">
        <ele>343</ele>
        <time>2017-10-26T12:20:41Z</time>
      </trkpt>
      <trkpt lat="45.95053" lon="4.62571">
        <ele>339</ele>
        <time>2017-10-26T12:22:41Z</time>
      </trkpt>
      <trkpt lat="45.95087" lon="4.62603">
        <ele>334</ele>
        <time>2017-10-26T12:24:41Z</time>
      </trkpt>
      <trkpt lat="45.95125" lon="4.62645">
        <ele>331</ele>
        <time>2017-10-26T12:26:41Z</time>
      </trkpt>
      <trkpt lat="45.95157" lon="4.62672">
        <ele>328</ele>
        <time>2017-10-26T12:28:41Z</time>
      </trkpt>
      <trkpt lat="45.95181" lon="4.62685">
        <ele>325</ele>
        <time>2017-10-26T12:30:41Z</time>
      </trkpt>
      <trkpt lat="45.95214" lon="4.62694">
        <ele>322</ele>
        <time>2017-10-26T12:32:41Z</time>
      </trkpt>
      <trkpt lat="45.95248" lon="4.62706">
        <ele>319</ele>
        <time>2017-10-26T12:34:41Z</time>
      </trkpt>
      <trkpt lat="45.95264" lon="4.62714">
        <ele>318</ele>
        <time>2017-10-26T12:36:41Z</time>
      </trkpt>
      <trkpt lat="45.95285" lon="4.62726">
        <ele>317</ele>
        <time>2017-10-26T12:38:41Z</time>
      </trkpt>
      <trkpt lat="45.95311" lon="4.62726">
        <ele>316</ele>
        <time>2017-10-26T12:40:41Z</time>
      </trkpt>
      <trkpt lat="45.9535" lon="4.62734">
        <ele>314</ele>
        <time>2017-10-26T12:42:41Z</time>
      </trkpt>
      <trkpt lat="45.95379" lon="4.62745">
        <ele>311</ele>
        <time>2017-10-26T12:44:41Z</time>
      </trkpt>
      <trkpt lat="45.95408" lon="4.62754">
        <ele>309</ele>
        <time>2017-10-26T12:46:41Z</time>
      </trkpt>
      <trkpt lat="45.95455" lon="4.62772">
        <ele>308</ele>
        <time>2017-10-26T12:48:41Z</time>
      </trkpt>
      <trkpt lat="45.95462" lon="4.62777">
        <ele>307</ele>
        <time>2017-10-26T12:50:41Z</time>
      </trkpt>
      <trkpt lat="45.95534" lon="4.62778">
        <ele>303</ele>
        <time>2017-10-26T12:52:41Z</time>
      </trkpt>
      <trkpt lat="45.95574" lon="4.62787">
        <ele>301</ele>
        <time>2017-10-26T12:54:41Z</time>
      </trkpt>
      <trkpt lat="45.95607" lon="4.62885">
        <ele>299</ele>
        <time>2017-10-26T12:56:41Z</time>
      </trkpt>
      <trkpt lat="45.95618" lon="4.62902">
        <ele>299</ele>
        <time>2017-10-26T12:58:41Z</time>
      </trkpt>
      <trkpt lat="45.95641" lon="4.62905">
        <ele>298</ele>
        <time>2017-10-26T13:00:41Z</time>
      </trkpt>
      <trkpt lat="45.9565" lon="4.62914">
        <ele>298</ele>
        <time>2017-10-26T13:02:41Z</time>
      </trkpt>
      <trkpt lat="45.95694" lon="4.62986">
        <ele>298</ele>
        <time>2017-10-26T13:04:41Z</time>
      </trkpt>
      <trkpt lat="45.95701" lon="4.62997">
        <ele>297</ele>
        <time>2017-10-26T13:06:41Z</time>
      </trkpt>
      <trkpt lat="45.9573" lon="4.63063">
        <ele>293</ele>
        <time>2017-10-26T13:08:41Z</time>
      </trkpt>
      <trkpt lat="45.95754" lon="4.63148">
        <ele>296</ele>
        <time>2017-10-26T13:10:41Z</time>
      </trkpt>
      <trkpt lat="45.9577" lon="4.63201">
        <ele>300</ele>
        <time>2017-10-26T13:12:41Z</time>
      </trkpt>
      <trkpt lat="45.9578" lon="4.63239">
        <ele>303</ele>
        <time>2017-10-26T13:14:41Z</time>
      </trkpt>
      <trkpt lat="45.95782" lon="4.63269">
        <ele>305</ele>
        <time>2017-10-26T13:16:41Z</time>
      </trkpt>
      <trkpt lat="45.95783" lon="4.63285">
        <ele>306</ele>
        <time>2017-10-26T13:18:41Z</time>
      </trkpt>
      <trkpt lat="45.95789" lon="4.63297">
        <ele>307</ele>
        <time>2017-10-26T13:20:41Z</time>
      </trkpt>
      <trkpt lat="45.95795" lon="4.63304">
        <ele>309</ele>
        <time>2017-10-26T13:22:41Z</time>
      </trkpt>
      <trkpt lat="45.95793" lon="4.63323">
        <ele>310</ele>
        <time>2017-10-26T13:24:41Z</time>
      </trkpt>
      <trkpt lat="45.95783" lon="4.63352">
        <ele>309</ele>
        <time>2017-10-26T13:26:41Z</time>
      </trkpt>
      <trkpt lat="45.95781" lon="4.63372">
        <ele>309</ele>
        <time>2017-10-26T13:28:41Z</time>
      </trkpt>
      <trkpt lat="45.95783" lon="4.63386">
        <ele>309</ele>
        <time>2017-10-26T13:30:41Z</time>
      </trkpt>
      <trkpt lat="45.95792" lon="4.63409">
        <ele>310</ele>
        <time>2017-10-26T13:32:41Z</time>
      </trkpt>
      <trkpt lat="45.95802" lon="4.63416">
        <ele>312</ele>
        <time>2017-10-26T13:34:41Z</time>
      </trkpt>
      <trkpt lat="45.95831" lon="4.63417">
        <ele>316</ele>
        <time>2017-10-26T13:36:41Z</time>
      </trkpt>
      <trkpt lat="45.95832" lon="4.63451">
        <ele>315</ele>
        <time>2017-10-26T13:38:41Z</time>
      </trkpt>
      <trkpt lat="45.95831" lon="4.63476">
        <ele>314</ele>
        <time>2017-10-26T13:40:41Z</time>
      </trkpt>
      <trkpt lat="45.95819" lon="4.63503">
        <ele>311</ele>
        <time>2017-10-26T13:42:41Z</time>
      </trkpt>
      <trkpt lat="45.95816" lon="4.63516">
        <ele>310</ele>
        <time>2017-10-26T13:44:41Z</time>
      </trkpt>
      <trkpt lat="45.95845" lon="4.63647">
        <ele>308</ele>
        <time>2017-10-26T13:46:41Z</time>
      </trkpt>
      <trkpt lat="45.95855" lon="4.63676">
        <ele>307</ele>
        <time>2017-10-26T13:48:41Z</time>
      </trkpt>
      <trkpt lat="45.95864" lon="4.63727">
        <ele>303</ele>
        <time>2017-10-26T13:50:41Z</time>
      </trkpt>
      <trkpt lat="45.95877" lon="4.63794">
        <ele>300</ele>
        <time>2017-10-26T13:52:41Z</time>
      </trkpt>
      <trkpt lat="45.95885" lon="4.6383">
        <ele>299</ele>
        <time>2017-10-26T13:54:41Z</time>
      </trkpt>
      <trkpt lat="45.95895" lon="4.63867">
        <ele>297</ele>
        <time>2017-10-26T13:56:41Z</time>
      </trkpt>
      <trkpt lat="45.95913" lon="4.63891">
        <ele>296</ele>
        <time>2017-10-26T13:58:41Z</time>
      </trkpt>
      <trkpt lat="45.95916" lon="4.63916">
        <ele>294</ele>
        <time>2017-10-26T14:00:41Z</time>
      </trkpt>
      <trkpt lat="45.95918" lon="4.63956">
        <ele>292</ele>
        <time>2017-10-26T14:02:41Z</time>
      </trkpt>
      <trkpt lat="45.9592" lon="4.64002">
        <ele>289</ele>
        <time>2017-10-26T14:04:41Z</time>
      </trkpt>
      <trkpt lat="45.95927" lon="4.64041">
        <ele>286</ele>
        <time>2017-10-26T14:06:41Z</time>
      </trkpt>
      <trkpt lat="45.95949" lon="4.64135">
        <ele>276</ele>
        <time>2017-10-26T14:08:41Z</time>
      </trkpt>
      <trkpt lat="45.95971" lon="4.64156">
        <ele>272</ele>
        <time>2017-10-26T14:10:41Z</time>
      </trkpt>
      <trkpt lat="45.95988" lon="4.64158">
        <ele>271</ele>
        <time>2017-10-26T14:12:41Z</time>
      </trkpt>
      <trkpt lat="45.96016" lon="4.64134">
        <ele>272</ele>
        <time>2017-10-26T14:14:41Z</time>
      </trkpt>
      <trkpt lat="45.96026" lon="4.64119">
        <ele>272</ele>
        <time>2017-10-26T14:16:41Z</time>
      </trkpt>
      <trkpt lat="45.96034" lon="4.64104">
        <ele>272</ele>
        <time>2017-10-26T14:18:41Z</time>
      </trkpt>
      <trkpt lat="45.96046" lon="4.64101">
        <ele>271</ele>
        <time>2017-10-26T14:20:41Z</time>
      </trkpt>
      <trkpt lat="45.96051" lon="4.64098">
        <ele>271</ele>
        <time>2017-10-26T14:22:41Z</time>
      </trkpt>
      <trkpt lat="45.9604" lon="4.64114">
        <ele>271</ele>
        <time>2017-10-26T14:24:41Z</time>
      </trkpt>
      <trkpt lat="45.9603" lon="4.64135">
        <ele>271</ele>
        <time>2017-10-26T14:26:41Z</time>
      </trkpt>
      <trkpt lat="45.96003" lon="4.64192">
        <ele>268</ele>
        <time>2017-10-26T14:28:41Z</time>
      </trkpt>
      <trkpt lat="45.9598" lon="4.64221">
        <ele>266</ele>
        <time>2017-10-26T14:30:41Z</time>
      </trkpt>
      <trkpt lat="45.95957" lon="4.64245">
        <ele>264</ele>
        <time>2017-10-26T14:32:41Z</time>
      </trkpt>
      <trkpt lat="45.95939" lon="4.64274">
        <ele>263</ele>
        <time>2017-10-26T14:34:41Z</time>
      </trkpt>
      <trkpt lat="45.95895" lon="4.64322">
        <ele>263</ele>
        <time>2017-10-26T14:36:41Z</time>
      </trkpt>
      <trkpt lat="45.95873" lon="4.64355">
        <ele>264</ele>
        <time>2017-10-26T14:38:41Z</time>
      </trkpt>
      <trkpt lat="45.95863" lon="4.6437">
        <ele>264</ele>
        <time>2017-10-26T14:40:41Z</time>
      </trkpt>
      <trkpt lat="45.95866" lon="4.64429">
        <ele>264</ele>
        <time>2017-10-26T14:42:41Z</time>
      </trkpt>
      <trkpt lat="45.95862" lon="4.64452">
        <ele>263</ele>
        <time>2017-10-26T14:44:41Z</time>
      </trkpt>
      <trkpt lat="45.95847" lon="4.64505">
        <ele>262</ele>
        <time>2017-10-26T14:46:41Z</time>
      </trkpt>
      <trkpt lat="45.95827" lon="4.64594">
        <ele>265</ele>
        <time>2017-10-26T14:48:41Z</time>
      </trkpt>
      <trkpt lat="45.95807" lon="4.64648">
        <ele>269</ele>
        <time>2017-10-26T14:50:41Z</time>
      </trkpt>
      <trkpt lat="45.958" lon="4.64653">
        <ele>271</ele>
        <time>2017-10-26T14:52:41Z</time>
      </trkpt>
      <trkpt lat="45.95821" lon="4.64664">
        <ele>267</ele>
        <time>2017-10-26T14:54:41Z</time>
      </trkpt>
      <trkpt lat="45.95842" lon="4.64669">
        <ele>264</ele>
        <time>2017-10-26T14:56:41Z</time>
      </trkpt>
      <trkpt lat="45.95868" lon="4.64671">
        <ele>261</ele>
        <time>2017-10-26T14:58:41Z</time>
      </trkpt>
      <trkpt lat="45.95882" lon="4.64683">
        <ele>260</ele>
        <time>2017-10-26T15:00:41Z</time>
      </trkpt>
      <trkpt lat="45.95899" lon="4.6472">
        <ele>259</ele>
        <time>2017-10-26T15:02:41Z</time>
      </trkpt>
      <trkpt lat="45.95935" lon="4.64814">
        <ele>255</ele>
        <time>2017-10-26T15:04:41Z</time>
      </trkpt>
      <trkpt lat="45.95986" lon="4.64816">
        <ele>252</ele>
        <time>2017-10-26T15:06:41Z</time>
      </trkpt>
      <trkpt lat="45.96022" lon="4.64818">
        <ele>252</ele>
        <time>2017-10-26T15:08:41Z</time>
      </trkpt>
      <trkpt lat="45.96042" lon="4.64828">
        <ele>253</ele>
        <time>2017-10-26T15:10:41Z</time>
      </trkpt>
      <trkpt lat="45.9605" lon="4.64842">
        <ele>253</ele>
        <time>2017-10-26T15:12:41Z</time>
      </trkpt>
      <trkpt lat="45.96059" lon="4.64836">
        <ele>253</ele>
        <time>2017-10-26T15:14:41Z</time>
      </trkpt>
      <trkpt lat="45.961" lon="4.64852">
        <ele>256</ele>
        <time>2017-10-26T15:16:41Z</time>
      </trkpt>
      <trkpt lat="45.96123" lon="4.64873">
        <ele>259</ele>
        <time>2017-10-26T15:18:41Z</time>
      </trkpt>
      <trkpt lat="45.9613" lon="4.64889">
        <ele>259</ele>
        <time>2017-10-26T15:20:41Z</time>
      </trkpt>
      <trkpt lat="45.9614" lon="4.64899">
        <ele>260</ele>
        <time>2017-10-26T15:22:41Z</time>
      </trkpt>
      <trkpt lat="45.96175" lon="4.64922">
        <ele>265</ele>
        <time>2017-10-26T15:24:41Z</time>
      </trkpt>
      <trkpt lat="45.96205" lon="4.64941">
        <ele>270</ele>
        <time>2017-10-26T15:26:41Z</time>
      </trkpt>
      <trkpt lat="45.96217" lon="4.64963">
        <ele>271</ele>
        <time>2017-10-26T15:28:41Z</time>
      </trkpt>
      <trkpt lat="45.96225" lon="4.64979">
        <ele>272</ele>
        <time>2017-10-26T15:30:41Z</time>
      </trkpt>
      <trkpt lat="45.96236" lon="4.65008">
        <ele>273</ele>
        <time>2017-10-26T15:32:41Z</time>
      </trkpt>
      <trkpt lat="45.96252" lon="4.65035">
        <ele>274</ele>
        <time>2017-10-26T15:34:41Z</time>
      </trkpt>
      <trkpt lat="45.9627" lon="4.65065">
        <ele>275</ele>
        <time>2017-10-26T15:36:41Z</time>
      </trkpt>
      <trkpt lat="45.96289" lon="4.65093">
        <ele>276</ele>
        <time>2017-10-26T15:38:41Z</time>
      </trkpt>
      <trkpt lat="45.96298" lon="4.65115">
        <ele>277</ele>
        <time>2017-10-26T15:40:41Z</time>
      </trkpt>
      <trkpt lat="45.96304" lon="4.65139">
        <ele>276</ele>
        <time>2017-10-26T15:42:41Z</time>
      </trkpt>
      <trkpt lat="45.96313" lon="4.65198">
        <ele>276</ele>
        <time>2017-10-26T15:44:41Z</time>
      </trkpt>
      <trkpt lat="45.96336" lon="4.6529">
        <ele>276</ele>
        <time>2017-10-26T15:46:41Z</time>
      </trkpt>
      <trkpt lat="45.96353" lon="4.65347">
        <ele>275</ele>
        <time>2017-10-26T15:48:41Z</time>
      </trkpt>
      <trkpt lat="45.96375" lon="4.65398">
        <ele>276</ele>
        <time>2017-10-26T15:50:41Z</time>
      </trkpt>
      <trkpt lat="45.96386" lon="4.65417">
        <ele>277</ele>
        <time>2017-10-26T15:52:41Z</time>
      </trkpt>
      <trkpt lat="45.96417" lon="4.65496">
        <ele>277</ele>
        <time>2017-10-26T15:54:41Z</time>
      </trkpt>
      <trkpt lat="45.96452" lon="4.65547">
        <ele>276</ele>
        <time>2017-10-26T15:56:41Z</time>
      </trkpt>
      <trkpt lat="45.96495" lon="4.65631">
        <ele>273</ele>
        <time>2017-10-26T15:58:41Z</time>
      </trkpt>
      <trkpt lat="45.96509" lon="4.65657">
        <ele>272</ele>
        <time>2017-10-26T16:00:41Z</time>
      </trkpt>
      <trkpt lat="45.96589" lon="4.65743">
        <ele>271</ele>
        <time>2017-10-26T16:02:41Z</time>
      </trkpt>
      <trkpt lat="45.96599" lon="4.65757">
        <ele>269</ele>
        <time>2017-10-26T16:04:41Z</time>
      </trkpt>
      <trkpt lat="45.9663" lon="4.65837">
        <ele>263</ele>
        <time>2017-10-26T16:06:41Z</time>
      </trkpt>
      <trkpt lat="45.96644" lon="4.65865">
        <ele>261</ele>
        <time>2017-10-26T16:08:41Z</time>
      </trkpt>
      <trkpt lat="45.96649" lon="4.65876">
        <ele>260</ele>
        <time>2017-10-26T16:10:41Z</time>
      </trkpt>
      <trkpt lat="45.96669" lon="4.65947">
        <ele>255</ele>
        <time>2017-10-26T16:12:41Z</time>
      </trkpt>
      <trkpt lat="45.96672" lon="4.66045">
        <ele>250</ele>
        <time>2017-10-26T16:14:41Z</time>
      </trkpt>
      <trkpt lat="45.9668" lon="4.6614">
        <ele>246</ele>
        <time>2017-10-26T16:16:41Z</time>
      </trkpt>
      <trkpt lat="45.96683" lon="4.66171">
        <ele>244</ele>
        <time>2017-10-26T16:18:41Z</time>
      </trkpt>
      <trkpt lat="45.96688" lon="4.662">
        <ele>242</ele>
        <time>2017-10-26T16:20:41Z</time>
      </trkpt>
      <trkpt lat="45.96982" lon="4.66205">
        <ele>251</ele>
        <time>2017-10-26T16:22:41Z</time>
      </trkpt>
      <trkpt lat="45.96991" lon="4.66215">
        <ele>252</ele>
        <time>2017-10-26T16:24:41Z</time>
      </trkpt>
      <trkpt lat="45.96985" lon="4.66241">
        <ele>251</ele>
        <time>2017-10-26T16:26:41Z</time>
      </trkpt>
      <trkpt lat="45.96962" lon="4.66383">
        <ele>244</ele>
        <time>2017-10-26T16:28:41Z</time>
      </trkpt>
      <trkpt lat="45.96961" lon="4.66401">
        <ele>244</ele>
        <time>2017-10-26T16:30:41Z</time>
      </trkpt>
      <trkpt lat="45.97007" lon="4.6642">
        <ele>245</ele>
        <time>2017-10-26T16:32:41Z</time>
      </trkpt>
      <trkpt lat="45.97029" lon="4.66424">
        <ele>244</ele>
        <time>2017-10-26T16:34:41Z</time>
      </trkpt>
      <trkpt lat="45.97064" lon="4.66399">
        <ele>243</ele>
        <time>2017-10-26T16:36:41Z</time>
      </trkpt>
      <trkpt lat="45.97078" lon="4.66392">
        <ele>243</ele>
        <time>2017-10-26T16:38:41Z</time>
      </trkpt>
      <trkpt lat="45.97111" lon="4.66392">
        <ele>243</ele>
        <time>2017-10-26T16:40:41Z</time>
      </trkpt>
      <trkpt lat="45.97165" lon="4.66405">
        <ele>244</ele>
        <time>2017-10-26T16:42:41Z</time>
      </trkpt>
      <trkpt lat="45.9719" lon="4.66409">
        <ele>247</ele>
        <time>2017-10-26T16:44:41Z</time>
      </trkpt>
      <trkpt lat="45.97201" lon="4.66413">
        <ele>248</ele>
        <time>2017-10-26T16:46:41Z</time>
      </trkpt>
      <trkpt lat="45.97207" lon="4.66421">
        <ele>249</ele>
        <time>2017-10-26T16:48:41Z</time>
      </trkpt>
      <trkpt lat="45.9724" lon="4.66454">
        <ele>253</ele>
        <time>2017-10-26T16:50:41Z</time>
      </trkpt>
      <trkpt lat="45.97275" lon="4.66509">
        <ele>256</ele>
        <time>2017-10-26T16:52:41Z</time>
      </trkpt>
      <trkpt lat="45.9729" lon="4.66539">
        <ele>257</ele>
        <time>2017-10-26T16:54:41Z</time>
      </trkpt>
      <trkpt lat="45.97304" lon="4.66557">
        <ele>258</ele>
        <time>2017-10-26T16:56:41Z</time>
      </trkpt>
      <trkpt lat="45.97329" lon="4.6657">
        <ele>260</ele>
        <time>2017-10-26T16:58:41Z</time>
      </trkpt>
      <trkpt lat="45.97356" lon="4.66579">
        <ele>261</ele>
        <time>2017-10-26T17:00:41Z</time>
      </trkpt>
      <trkpt lat="45.97368" lon="4.66576">
        <ele>262</ele>
        <time>2017-10-26T17:02:41Z</time>
      </trkpt>
      <trkpt lat="45.97385" lon="4.66561">
        <ele>263</ele>
        <time>2017-10-26T17:04:41Z</time>
      </trkpt>
      <trkpt lat="45.97398" lon="4.66532">
        <ele>264</ele>
        <time>2017-10-26T17:06:41Z</time>
      </trkpt>
      <trkpt lat="45.97405" lon="4.66509">
        <ele>264</ele>
        <time>2017-10-26T17:08:41Z</time>
      </trkpt>
      <trkpt lat="45.97424" lon="4.66469">
        <ele>269</ele>
        <time>2017-10-26T17:10:41Z</time>
      </trkpt>
      <trkpt lat="45.97468" lon="4.66404">
        <ele>272</ele>
        <time>2017-10-26T17:12:41Z</time>
      </trkpt>
      <trkpt lat="45.97551" lon="4.66291">
        <ele>274</ele>
        <time>2017-10-26T17:14:41Z</time>
      </trkpt>
      <trkpt lat="45.97567" lon="4.6625">
        <ele>276</ele>
        <time>2017-10-26T17:16:41Z</time>
      </trkpt>
      <trkpt lat="45.97589" lon="4.66262">
        <ele>274</ele>
        <time>2017-10-26T17:18:41Z</time>
      </trkpt>
      <trkpt lat="45.97607" lon="4.66273">
        <ele>273</ele>
        <time>2017-10-26T17:20:41Z</time>
      </trkpt>
      <trkpt lat="45.97646" lon="4.66284">
        <ele>270</ele>
        <time>2017-10-26T17:22:41Z</time>
      </trkpt>
      <trkpt lat="45.97669" lon="4.66287">
        <ele>269</ele>
        <time>2017-10-26T17:24:41Z</time>
      </trkpt>
      <trkpt lat="45.97715" lon="4.66278">
        <ele>268</ele>
        <time>2017-10-26T17:26:41Z</time>
      </trkpt>
      <trkpt lat="45.97736" lon="4.66269">
        <ele>268</ele>
        <time>2017-10-26T17:28:41Z</time>
      </trkpt>
      <trkpt lat="45.97779" lon="4.66247">
        <ele>267</ele>
        <time>2017-10-26T17:30:41Z</time>
      </trkpt>
      <trkpt lat="45.97802" lon="4.66238">
        <ele>266</ele>
        <time>2017-10-26T17:32:41Z</time>
      </trkpt>
      <trkpt lat="45.97842" lon="4.66235">
        <ele>264</ele>
        <time>2017-10-26T17:34:41Z</time>
      </trkpt>
      <trkpt lat="45.97868" lon="4.66237">
        <ele>267</ele>
        <time>2017-10-26T17:36:41Z</time>
      </trkpt>
      <trkpt lat="45.97954" lon="4.66257">
        <ele>271</ele>
        <time>2017-10-26T17:38:41Z</time>
      </trkpt>
      <trkpt lat="45.97973" lon="4.66258">
        <ele>270</ele>
        <time>2017-10-26T17:40:41Z</time>
      </trkpt>
      <trkpt lat="45.98017" lon="4.66306">
        <ele>269</ele>
        <time>2017-10-26T17:42:41Z</time>
      </trkpt>
      <trkpt lat="45.98032" lon="4.66333">
        <ele>268</ele>
        <time>2017-10-26T17:44:41Z</time>
      </trkpt>
      <trkpt lat="45.98048" lon="4.66373">
        <ele>267</ele>
        <time>2017-10-26T17:46:41Z</time>
      </trkpt>
      <trkpt lat="45.98061" lon="4.66415">
        <ele>266</ele>
        <time>2017-10-26T17:48:41Z</time>
      </trkpt>
      <trkpt lat="45.9807" lon="4.66462">
        <ele>265</ele>
        <time>2017-10-26T17:50:41Z</time>
      </trkpt>
      <trkpt lat="45.98127" lon="4.66458">
        <ele>261</ele>
        <time>2017-10-26T17:52:41Z</time>
      </trkpt>
      <trkpt lat="45.98152" lon="4.66456">
        <ele>259</ele>
        <time>2017-10-26T17:54:41Z</time>
      </trkpt>
      <trkpt lat="45.98208" lon="4.66458">
        <ele>250</ele>
        <time>2017-10-26T17:56:41Z</time>
      </trkpt>
      <trkpt lat="45.98234" lon="4.6646">
        <ele>245</ele>
        <time>2017-10-26T17:58:41Z</time>
      </trkpt>
      <trkpt lat="45.98287" lon="4.66454">
        <ele>237</ele>
        <time>2017-10-26T18:00:41Z</time>
      </trkpt>
      <trkpt lat="45.98297" lon="4.66457">
        <ele>236</ele>
        <time>2017-10-26T18:02:41Z</time>
      </trkpt>
      <trkpt lat="45.98312" lon="4.66482">
        <ele>234</ele>
        <time>2017-10-26T18:04:41Z</time>
      </trkpt>
      <trkpt lat="45.98329" lon="4.66522">
        <ele>232</ele>
        <time>2017-10-26T18:06:41Z</time>
      </trkpt>
      <trkpt lat="45.98338" lon="4.66574">
        <ele>231</ele>
        <time>2017-10-26T18:08:41Z</time>
      </trkpt>
      <trkpt lat="45.98343" lon="4.66606">
        <ele>230</ele>
        <time>2017-10-26T18:10:41Z</time>
      </trkpt>
      <trkpt lat="45.98352" lon="4.66628">
        <ele>229</ele>
        <time>2017-10-26T18:12:41Z</time>
      </trkpt>
      <trkpt lat="45.9838" lon="4.66605">
        <ele>228</ele>
        <time>2017-10-26T18:14:41Z</time>
      </trkpt>
      <trkpt lat="45.98396" lon="4.66599">
        <ele>227</ele>
        <time>2017-10-26T18:16:41Z</time>
      </trkpt>
      <trkpt lat="45.98419" lon="4.66591">
        <ele>226</ele>
        <time>2017-10-26T18:18:41Z</time>
      </trkpt>
      <trkpt lat="45.98442" lon="4.66588">
        <ele>226</ele>
        <time>2017-10-26T18:20:41Z</time>
      </trkpt>
      <trkpt lat="45.98472" lon="4.66581">
        <ele>226</ele>
        <time>2017-10-26T18:22:41Z</time>
      </trkpt>
      <trkpt lat="45.98495" lon="4.66571">
        <ele>226</ele>
        <time>2017-10-26T18:24:41Z</time>
      </trkpt>
      <trkpt lat="45.98501" lon="4.66566">
        <ele>226</ele>
        <time>2017-10-26T18:26:41Z</time>
      </trkpt>
      <trkpt lat="45.98516" lon="4.66537">
        <ele>227</ele>
        <time>2017-10-26T18:28:41Z</time>
      </trkpt>
      <trkpt lat="45.98587" lon="4.66486">
        <ele>231</ele>
        <time>2017-10-26T18:30:41Z</time>
      </trkpt>
      <trkpt lat="45.98674" lon="4.66473">
        <ele>239</ele>
        <time>2017-10-26T18:32:41Z</time>
      </trkpt>
      <trkpt lat="45.98678" lon="4.6646">
        <ele>240</ele>
        <time>2017-10-26T18:34:41Z</time>
      </trkpt>
      <trkpt lat="45.98686" lon="4.66449">
        <ele>241</ele>
        <time>2017-10-26T18:36:41Z</time>
      </trkpt>
      <trkpt lat="45.98704" lon="4.66436">
        <ele>242</ele>
        <time>2017-10-26T18:38:41Z</time>
      </trkpt>
      <trkpt lat="45.98717" lon="4.66423">
        <ele>243</ele>
        <time>2017-10-26T18:40:41Z</time>
      </trkpt>
      <trkpt lat="45.98725" lon="4.66403">
        <ele>244</ele>
        <time>2017-10-26T18:42:41Z</time>
      </trkpt>
      <trkpt lat="45.98731" lon="4.6638">
        <ele>246</ele>
        <time>2017-10-26T18:44:41Z</time>
      </trkpt>
      <trkpt lat="45.98734" lon="4.66358">
        <ele>247</ele>
        <time>2017-10-26T18:46:41Z</time>
      </trkpt>
      <trkpt lat="45.98736" lon="4.66337">
        <ele>248</ele>
        <time>2017-10-26T18:48:41Z</time>
      </trkpt>
      <trkpt lat="45.98772" lon="4.6632">
        <ele>248</ele>
        <time>2017-10-26T18:50:41Z</time>
      </trkpt>
      <trkpt lat="45.988" lon="4.66307">
        <ele>247</ele>
        <time>2017-10-26T18:52:41Z</time>
      </trkpt>
      <trkpt lat="45.9882" lon="4.66289">
        <ele>246</ele>
        <time>2017-10-26T18:54:41Z</time>
      </trkpt>
      <trkpt lat="45.98836" lon="4.66271">
        <ele>246</ele>
        <time>2017-10-26T18:56:41Z</time>
      </trkpt>
      <trkpt lat="45.9885" lon="4.66261">
        <ele>246</ele>
        <time>2017-10-26T18:58:41Z</time>
      </trkpt>
      <trkpt lat="45.98867" lon="4.66259">
        <ele>247</ele>
        <time>2017-10-26T19:00:41Z</time>
      </trkpt>
      <trkpt lat="45.98885" lon="4.66265">
        <ele>248</ele>
        <time>2017-10-26T19:02:41Z</time>
      </trkpt>
      <trkpt lat="45.98953" lon="4.66272">
        <ele>254</ele>
        <time>2017-10-26T19:04:41Z</time>
      </trkpt>
      <trkpt lat="45.98973" lon="4.66287">
        <ele>257</ele>
        <time>2017-10-26T19:06:41Z</time>
      </trkpt>
      <trkpt lat="45.99001" lon="4.66306">
        <ele>260</ele>
        <time>2017-10-26T19:08:41Z</time>
      </trkpt>
      <trkpt lat="45.99023" lon="4.66321">
        <ele>262</ele>
        <time>2017-10-26T19:10:41Z</time>
      </trkpt>
      <trkpt lat="45.99037" lon="4.66319">
        <ele>263</ele>
        <time>2017-10-26T19:12:41Z</time>
      </trkpt>
      <trkpt lat="45.99064" lon="4.66316">
        <ele>265</ele>
        <time>2017-10-26T19:14:41Z</time>
      </trkpt>
      <trkpt lat="45.99112" lon="4.66322">
        <ele>267</ele>
        <time>2017-10-26T19:16:41Z</time>
      </trkpt>
      <trkpt lat="45.99138" lon="4.66315">
        <ele>268</ele>
        <time>2017-10-26T19:18:41Z</time>
      </trkpt>
      <trkpt lat="45.99159" lon="4.66311">
        <ele>269</ele>
        <time>2017-10-26T19:20:41Z</time>
      </trkpt>
      <trkpt lat="45.99185" lon="4.66309">
        <ele>269</ele>
        <time>2017-10-26T19:22:41Z</time>
      </trkpt>
      <trkpt lat="45.99222" lon="4.66304">
        <ele>270</ele>
        <time>2017-10-26T19:24:41Z</time>
      </trkpt>
      <trkpt lat="45.99256" lon="4.66298">
        <ele>271</ele>
        <time>2017-10-26T19:26:41Z</time>
      </trkpt>
      <trkpt lat="45.9928" lon="4.66296">
        <ele>272</ele>
        <time>2017-10-26T19:28:41Z</time>
      </trkpt>
      <trkpt lat="45.99313" lon="4.663">
        <ele>273</ele>
        <time>2017-10-26T19:30:41Z</time>
      </trkpt>
      <trkpt lat="45.99353" lon="4.66298">
        <ele>273</ele>
        <time>2017-10-26T19:32:41Z</time>
      </trkpt>
      <trkpt lat="45.99383" lon="4.66298">
        <ele>273</ele>
        <time>2017-10-26T19:34:41Z</time>
      </trkpt>
      <trkpt lat="45.99401" lon="4.66301">
        <ele>273</ele>
        <time>2017-10-26T19:36:41Z</time>
      </trkpt>
      <trkpt lat="45.99422" lon="4.66303">
        <ele>272</ele>
        <time>2017-10-26T19:38:41Z</time>
      </trkpt>
      <trkpt lat="45.99497" lon="4.66307">
        <ele>273</ele>
        <time>2017-10-26T19:40:41Z</time>
      </trkpt>
      <trkpt lat="45.99611" lon="4.66314">
        <ele>275</ele>
        <time>2017-10-26T19:42:41Z</time>
      </trkpt>
      <trkpt lat="45.99638" lon="4.66322">
        <ele>274</ele>
        <time>2017-10-26T19:44:41Z</time>
      </trkpt>
      <trkpt lat="45.99676" lon="4.66347">
        <ele>272</ele>
        <time>2017-10-26T19:46:41Z</time>
      </trkpt>
      <trkpt lat="45.997" lon="4.66361">
        <ele>270</ele>
        <time>2017-10-26T19:48:41Z</time>
      </trkpt>
      <trkpt lat="45.99714" lon="4.66368">
        <ele>269</ele>
        <time>2017-10-26T19:50:41Z</time>
      </trkpt>
      <trkpt lat="45.99728" lon="4.66375">
        <ele>268</ele>
        <time>2017-10-26T19:52:41Z</time>
      </trkpt>
      <trkpt lat="45.99757" lon="4.6639">
        <ele>265</ele>
        <time>2017-10-26T19:54:41Z</time>
      </trkpt>
      <trkpt lat="45.99795" lon="4.66402">
        <ele>261</ele>
        <time>2017-10-26T19:56:41Z</time>
      </trkpt>
      <trkpt lat="45.9981" lon="4.66405">
        <ele>260</ele>
        <time>2017-10-26T19:58:41Z</time>
      </trkpt>
      <trkpt lat="45.99844" lon="4.66411">
        <ele>256</ele>
        <time>2017-10-26T20:00:41Z</time>
      </trkpt>
      <trkpt lat="45.99855" lon="4.6632">
        <ele>257</ele>
        <time>2017-10-26T20:02:41Z</time>
      </trkpt>
      <trkpt lat="45.99864" lon="4.66223">
        <ele>257</ele>
        <time>2017-10-26T20:04:41Z</time>
      </trkpt>
      <trkpt lat="45.99868" lon="4.66183">
        <ele>258</ele>
        <time>2017-10-26T20:06:41Z</time>
      </trkpt>
      <trkpt lat="45.9988" lon="4.66111">
        <ele>259</ele>
        <time>2017-10-26T20:08:41Z</time>
      </trkpt>
      <trkpt lat="45.99885" lon="4.66085">
        <ele>259</ele>
        <time>2017-10-26T20:10:41Z</time>
      </trkpt>
      <trkpt lat="45.99898" lon="4.65996">
        <ele>260</ele>
        <time>2017-10-26T20:12:41Z</time>
      </trkpt>
      <trkpt lat="45.99908" lon="4.65933">
        <ele>261</ele>
        <time>2017-10-26T20:14:41Z</time>
      </trkpt>
      <trkpt lat="45.99912" lon="4.65881">
        <ele>260</ele>
        <time>2017-10-26T20:16:41Z</time>
      </trkpt>
      <trkpt lat="45.99912" lon="4.65828">
        <ele>259</ele>
        <time>2017-10-26T20:18:41Z</time>
      </trkpt>
      <trkpt lat="45.99905" lon="4.65803">
        <ele>260</ele>
        <time>2017-10-26T20:20:41Z</time>
      </trkpt>
      <trkpt lat="45.99902" lon="4.65786">
        <ele>260</ele>
        <time>2017-10-26T20:22:41Z</time>
      </trkpt>
      <trkpt lat="45.99902" lon="4.65773">
        <ele>261</ele>
        <time>2017-10-26T20:24:41Z</time>
      </trkpt>
      <trkpt lat="45.99923" lon="4.65738">
        <ele>260</ele>
        <time>2017-10-26T20:26:41Z</time>
      </trkpt>
      <trkpt lat="45.99934" lon="4.65717">
        <ele>260</ele>
        <time>2017-10-26T20:28:41Z</time>
      </trkpt>
      <trkpt lat="45.9994" lon="4.65698">
        <ele>260</ele>
        <time>2017-10-26T20:30:41Z</time>
      </trkpt>
      <trkpt lat="45.99951" lon="4.65685">
        <ele>259</ele>
        <time>2017-10-26T20:32:41Z</time>
      </trkpt>
      <trkpt lat="45.99954" lon="4.65674">
        <ele>260</ele>
        <time>2017-10-26T20:34:41Z</time>
      </trkpt>
      <trkpt lat="45.99958" lon="4.65635">
        <ele>260</ele>
        <time>2017-10-26T20:36:41Z</time>
      </trkpt>
      <trkpt lat="45.99972" lon="4.65573">
        <ele>261</ele>
        <time>2017-10-26T20:38:41Z</time>
      </trkpt>
      <trkpt lat="45.99984" lon="4.65524">
        <ele>262</ele>
        <time>2017-10-26T20:40:41Z</time>
      </trkpt>
      <trkpt lat="45.99994" lon="4.65475">
        <ele>262</ele>
        <time>2017-10-26T20:42:41Z</time>
      </trkpt>
      <trkpt lat="46.00009" lon="4.65433">
        <ele>261</ele>
        <time>2017-10-26T20:44:41Z</time>
      </trkpt>
      <trkpt lat="46.00028" lon="4.654">
        <ele>260</ele>
        <time>2017-10-26T20:46:41Z</time>
      </trkpt>
      <trkpt lat="46.00054" lon="4.65369">
        <ele>259</ele>
        <time>2017-10-26T20:48:41Z</time>
      </trkpt>
      <trkpt lat="46.0007" lon="4.65323">
        <ele>260</ele>
        <time>2017-10-26T20:50:41Z</time>
      </trkpt>
      <trkpt lat="46.00077" lon="4.65298">
        <ele>260</ele>
        <time>2017-10-26T20:52:41Z</time>
      </trkpt>
      <trkpt lat="46.0008" lon="4.65271">
        <ele>260</ele>
        <time>2017-10-26T20:54:41Z</time>
      </trkpt>
      <trkpt lat="46.0008" lon="4.65237">
        <ele>260</ele>
        <time>2017-10-26T20:56:41Z</time>
      </trkpt>
      <trkpt lat="46.00078" lon="4.65209">
        <ele>261</ele>
        <time>2017-10-26T20:58:41Z</time>
      </trkpt>
      <trkpt lat="46.00078" lon="4.65173">
        <ele>261</ele>
        <time>2017-10-26T21:00:41Z</time>
      </trkpt>
      <trkpt lat="46.00081" lon="4.65098">
        <ele>262</ele>
        <time>2017-10-26T21:02:41Z</time>
      </trkpt>
      <trkpt lat="46.00084" lon="4.65021">
        <ele>263</ele>
        <time>2017-10-26T21:04:41Z</time>
      </trkpt>
      <trkpt lat="46.00086" lon="4.6497">
        <ele>263</ele>
        <time>2017-10-26T21:06:41Z</time>
      </trkpt>
      <trkpt lat="46.00093" lon="4.64931">
        <ele>263</ele>
        <time>2017-10-26T21:08:41Z</time>
      </trkpt>
      <trkpt lat="46.00105" lon="4.64879">
        <ele>264</ele>
        <time>2017-10-26T21:10:41Z</time>
      </trkpt>
      <trkpt lat="46.00177" lon="4.64874">
        <ele>260</ele>
        <time>2017-10-26T21:12:41Z</time>
      </trkpt>
      <trkpt lat="46.0018" lon="4.64852">
        <ele>261</ele>
        <time>2017-10-26T21:14:41Z</time>
      </trkpt>
      <trkpt lat="46.00179" lon="4.6474">
        <ele>268</ele>
        <time>2017-10-26T21:16:41Z</time>
      </trkpt>
      <trkpt lat="46.00177" lon="4.64655">
        <ele>272</ele>
        <time>2017-10-26T21:18:41Z</time>
      </trkpt>
      <trkpt lat="46.00175" lon="4.64585">
        <ele>277</ele>
        <time>2017-10-26T21:20:41Z</time>
      </trkpt>
      <trkpt lat="46.00183" lon="4.64584">
        <ele>276</ele>
        <time>2017-10-26T21:22:41Z</time>
      </trkpt>
      <trkpt lat="46.00183" lon="4.64552">
        <ele>276</ele>
        <time>2017-10-26T21:24:41Z</time>
      </trkpt>
      <trkpt lat="46.00182" lon="4.64525">
        <ele>276</ele>
        <time>2017-10-26T21:26:41Z</time>
      </trkpt>
      <trkpt lat="46.00184" lon="4.64499">
        <ele>276</ele>
        <time>2017-10-26T21:28:41Z</time>
      </trkpt>
      <trkpt lat="46.0017" lon="4.64493">
        <ele>278</ele>
        <time>2017-10-26T21:30:41Z</time>
      </trkpt>
      <trkpt lat="46.00173" lon="4.64371">
        <ele>281</ele>
        <time>2017-10-26T21:32:41Z</time>
      </trkpt>
      <trkpt lat="46.00127" lon="4.64344">
        <ele>284</ele>
        <time>2017-10-26T21:34:41Z</time>
      </trkpt>
      <trkpt lat="46.00085" lon="4.64313">
        <ele>286</ele>
        <time>2017-10-26T21:36:41Z</time>
      </trkpt>
      <trkpt lat="46.00065" lon="4.64296">
        <ele>288</ele>
        <time>2017-10-26T21:38:41Z</time>
      </trkpt>
      <trkpt lat="45.99964" lon="4.64246">
        <ele>293</ele>
        <time>2017-10-26T21:40:41Z</time>
      </trkpt>
      <trkpt lat="45.99924" lon="4.64224">
        <ele>296</ele>
        <time>2017-10-26T21:42:41Z</time>
      </trkpt>
      <trkpt lat="45.99913" lon="4.64223">
        <ele>296</ele>
        <time>2017-10-26T21:44:41Z</time>
      </trkpt>
      <trkpt lat="45.99915" lon="4.64206">
        <ele>296</ele>
        <time>2017-10-26T21:46:41Z</time>
      </trkpt>
      <trkpt lat="45.99904" lon="4.64199">
        <ele>297</ele>
        <time>2017-10-26T21:48:41Z</time>
      </trkpt>
      <trkpt lat="45.99857" lon="4.64145">
        <ele>299</ele>
        <time>2017-10-26T21:50:41Z</time>
      </trkpt>
      <trkpt lat="45.99832" lon="4.64115">
        <ele>301</ele>
        <time>2017-10-26T21:52:41Z</time>
      </trkpt>
      <trkpt lat="45.99807" lon="4.64087">
        <ele>304</ele>
        <time>2017-10-26T21:54:41Z</time>
      </trkpt>
      <trkpt lat="45.99795" lon="4.64075">
        <ele>305</ele>
        <time>2017-10-26T21:56:41Z</time>
      </trkpt>
      <trkpt lat="45.9976" lon="4.64049">
        <ele>307</ele>
        <time>2017-10-26T21:58:41Z</time>
      </trkpt>
      <trkpt lat="45.99734" lon="4.64028">
        <ele>309</ele>
        <time>2017-10-26T22:00:41Z</time>
      </trkpt>
      <trkpt lat="45.9971" lon="4.64015">
        <ele>312</ele>
        <time>2017-10-26T22:02:41Z</time>
      </trkpt>
      <trkpt lat="45.99706" lon="4.64052">
        <ele>311</ele>
        <time>2017-10-26T22:04:41Z</time>
      </trkpt>
      <trkpt lat="45.99702" lon="4.64107">
        <ele>310</ele>
        <time>2017-10-26T22:06:41Z</time>
      </trkpt>
      <trkpt lat="45.99701" lon="4.64142">
        <ele>308</ele>
        <time>2017-10-26T22:08:41Z</time>
      </trkpt>
      <trkpt lat="45.99703" lon="4.6418">
        <ele>307</ele>
        <time>2017-10-26T22:10:41Z</time>
      </trkpt>
      <trkpt lat="45.99675" lon="4.64194">
        <ele>307</ele>
        <time>2017-10-26T22:12:41Z</time>
      </trkpt>
      <trkpt lat="45.99657" lon="4.64206">
        <ele>308</ele>
        <time>2017-10-26T22:14:41Z</time>
      </trkpt>
      <trkpt lat="45.99636" lon="4.64229">
        <ele>307</ele>
        <time>2017-10-26T22:16:41Z</time>
      </trkpt>
      <trkpt lat="45.99608" lon="4.64253">
        <ele>306</ele>
        <time>2017-10-26T22:18:41Z</time>
      </trkpt>
      <trkpt lat="45.99569" lon="4.64283">
        <ele>305</ele>
        <time>2017-10-26T22:20:41Z</time>
      </trkpt>
      <trkpt lat="45.9951" lon="4.64342">
        <ele>300</ele>
        <time>2017-10-26T22:22:41Z</time>
      </trkpt>
      <trkpt lat="45.99492" lon="4.64353">
        <ele>300</ele>
        <time>2017-10-26T22:24:41Z</time>
      </trkpt>
      <trkpt lat="45.99474" lon="4.64363">
        <ele>299</ele>
        <time>2017-10-26T22:26:41Z</time>
      </trkpt>
      <trkpt lat="45.99455" lon="4.64371">
        <ele>298</ele>
        <time>2017-10-26T22:28:41Z</time>
      </trkpt>
      <trkpt lat="45.99443" lon="4.64378">
        <ele>298</ele>
        <time>2017-10-26T22:30:41Z</time>
      </trkpt>
      <trkpt lat="45.99421" lon="4.64379">
        <ele>297</ele>
        <time>2017-10-26T22:32:41Z</time>
      </trkpt>
      <trkpt lat="45.99408" lon="4.64377">
        <ele>297</ele>
        <time>2017-10-26T22:34:41Z</time>
      </trkpt>
      <trkpt lat="45.99381" lon="4.64383">
        <ele>297</ele>
        <time>2017-10-26T22:36:41Z</time>
      </trkpt>
      <trkpt lat="45.9934" lon="4.64402">
        <ele>296</ele>
        <time>2017-10-26T22:38:41Z</time>
      </trkpt>
      <trkpt lat="45.99334" lon="4.64478">
        <ele>294</ele>
        <time>2017-10-26T22:40:41Z</time>
      </trkpt>
      <trkpt lat="45.9934" lon="4.64531">
        <ele>292</ele>
        <time>2017-10-26T22:42:41Z</time>
      </trkpt>
      <trkpt lat="45.99337" lon="4.64561">
        <ele>292</ele>
        <time>2017-10-26T22:44:41Z</time>
      </trkpt>
      <trkpt lat="45.99333" lon="4.64567">
        <ele>291</ele>
        <time>2017-10-26T22:46:41Z</time>
      </trkpt>
      <trkpt lat="45.99307" lon="4.64561">
        <ele>291</ele>
        <time>2017-10-26T22:48:41Z</time>
      </trkpt>
      <trkpt lat="45.99305" lon="4.64544">
        <ele>292</ele>
        <time>2017-10-26T22:50:41Z</time>
      </trkpt>
      <trkpt lat="45.99302" lon="4.64508">
        <ele>293</ele>
        <time>2017-10-26T22:52:41Z</time>
      </trkpt>
      <trkpt lat="45.99316" lon="4.64504">
        <ele>293</ele>
        <time>2017-10-26T22:54:41Z</time>
      </trkpt>
      <trkpt lat="45.99331" lon="4.64485">
        <ele>293</ele>
        <time>2017-10-26T22:56:41Z</time>
      </trkpt>
      <trkpt lat="45.99334" lon="4.64452">
        <ele>294</ele>
        <time>2017-10-26T22:58:41Z</time>
      </trkpt>
      <trkpt lat="45.9934" lon="4.64392">
        <ele>297</ele>
        <time>2017-10-26T23:00:41Z</time>
      </trkpt>
      <trkpt lat="45.9934" lon="4.64355">
        <ele>299</ele>
        <time>2017-10-26T23:02:41Z</time>
      </trkpt>
      <trkpt lat="45.9934" lon="4.64288">
        <ele>303</ele>
        <time>2017-10-26T23:04:41Z</time>
      </trkpt>
      <trkpt lat="45.99337" lon="4.64255">
        <ele>305</ele>
        <time>2017-10-26T23:06:41Z</time>
      </trkpt>
      <trkpt lat="45.99331" lon="4.64238">
        <ele>306</ele>
        <time>2017-10-26T23:08:41Z</time>
      </trkpt>
      <trkpt lat="45.99321" lon="4.64218">
        <ele>308</ele>
        <time>2017-10-26T23:10:41Z</time>
      </trkpt>
      <trkpt lat="45.99308" lon="4.64198">
        <ele>311</ele>
        <time>2017-10-26T23:12:41Z</time>
      </trkpt>
      <trkpt lat="45.99299" lon="4.64177">
        <ele>313</ele>
        <time>2017-10-26T23:14:41Z</time>
      </trkpt>
      <trkpt lat="45.99283" lon="4.64161">
        <ele>315</ele>
        <time>2017-10-26T23:16:41Z</time>
      </trkpt>
      <trkpt lat="45.99265" lon="4.64149">
        <ele>317</ele>
        <time>2017-10-26T23:18:41Z</time>
      </trkpt>
      <trkpt lat="45.99246" lon="4.64142">
        <ele>317</ele>
        <time>2017-10-26T23:20:41Z</time>
      </trkpt>
      <trkpt lat="45.99205" lon="4.64123">
        <ele>320</ele>
        <time>2017-10-26T23:22:41Z</time>
      </trkpt>
      <trkpt lat="45.99178" lon="4.64108">
        <ele>323</ele>
        <time>2017-10-26T23:24:41Z</time>
      </trkpt>
      <trkpt lat="45.99155" lon="4.64095">
        <ele>325</ele>
        <time>2017-10-26T23:26:41Z</time>
      </trkpt>
      <trkpt lat="45.99116" lon="4.64075">
        <ele>328</ele>
        <time>2017-10-26T23:28:41Z</time>
      </trkpt>
      <trkpt lat="45.99089" lon="4.64061">
        <ele>331</ele>
        <time>2017-10-26T23:30:41Z</time>
      </trkpt>
      <trkpt lat="45.99056" lon="4.64051">
        <ele>332</ele>
        <time>2017-10-26T23:32:41Z</time>
      </trkpt>
      <trkpt lat="45.99023" lon="4.64041">
        <ele>333</ele>
        <time>2017-10-26T23:34:41Z</time>
      </trkpt>
      <trkpt lat="45.98994" lon="4.64031">
        <ele>333</ele>
        <time>2017-10-26T23:36:41Z</time>
      </trkpt>
      <trkpt lat="45.98991" lon="4.64018">
        <ele>334</ele>
        <time>2017-10-26T23:38:41Z</time>
      </trkpt>
      <trkpt lat="45.98998" lon="4.6401">
        <ele>336</ele>
        <time>2017-10-26T23:40:41Z</time>
      </trkpt>
      <trkpt lat="45.99027" lon="4.6401">
        <ele>337</ele>
        <time>2017-10-26T23:42:41Z</time>
      </trkpt>
      <trkpt lat="45.99066" lon="4.63996">
        <ele>342</ele>
        <time>2017-10-26T23:44:41Z</time>
      </trkpt>
      <trkpt lat="45.99096" lon="4.63982">
        <ele>345</ele>
        <time>2017-10-26T23:46:41Z</time>
      </trkpt>
      <trkpt lat="45.99127" lon="4.63969">
        <ele>347</ele>
        <time>2017-10-26T23:48:41Z</time>
      </trkpt>
      <trkpt lat="45.99141" lon="4.6396">
        <ele>348</ele>
        <time>2017-10-26T23:50:41Z</time>
      </trkpt>
      <trkpt lat="45.99163" lon="4.63935">
        <ele>353</ele>
        <time>2017-10-26T23:52:41Z</time>
      </trkpt>
      <trkpt lat="45.99181" lon="4.63914">
        <ele>356</ele>
        <time>2017-10-26T23:54:41Z</time>
      </trkpt>
      <trkpt lat="45.99216" lon="4.63886">
        <ele>355</ele>
        <time>2017-10-26T23:56:41Z</time>
      </trkpt>
      <trkpt lat="45.99245" lon="4.63865">
        <ele>356</ele>
        <time>2017-10-26T23:58:41Z</time>
      </trkpt>
      <trkpt lat="45.99275" lon="4.63841">
        <ele>358</ele>
        <time>2017-10-27T00:00:41Z</time>
      </trkpt>
      <trkpt lat="45.99285" lon="4.63829">
        <ele>359</ele>
        <time>2017-10-27T00:02:41Z</time>
      </trkpt>
      <trkpt lat="45.99304" lon="4.63794">
        <ele>361</ele>
        <time>2017-10-27T00:04:41Z</time>
      </trkpt>
      <trkpt lat="45.99314" lon="4.63764">
        <ele>363</ele>
        <time>2017-10-27T00:06:41Z</time>
      </trkpt>
      <trkpt lat="45.99319" lon="4.63742">
        <ele>364</ele>
        <time>2017-10-27T00:08:41Z</time>
      </trkpt>
      <trkpt lat="45.99327" lon="4.63722">
        <ele>365</ele>
        <time>2017-10-27T00:10:41Z</time>
      </trkpt>
      <trkpt lat="45.99347" lon="4.63684">
        <ele>365</ele>
        <time>2017-10-27T00:12:41Z</time>
      </trkpt>
      <trkpt lat="45.99353" lon="4.63669">
        <ele>365</ele>
        <time>2017-10-27T00:14:41Z</time>
      </trkpt>
      <trkpt lat="45.99335" lon="4.63605">
        <ele>364</ele>
        <time>2017-10-27T00:16:41Z</time>
      </trkpt>
      <trkpt lat="45.99328" lon="4.63587">
        <ele>364</ele>
        <time>2017-10-27T00:18:41Z</time>
      </trkpt>
      <trkpt lat="45.99307" lon="4.63585">
        <ele>365</ele>
        <time>2017-10-27T00:20:41Z</time>
      </trkpt>
      <trkpt lat="45.99283" lon="4.63579">
        <ele>366</ele>
        <time>2017-10-27T00:22:41Z</time>
      </trkpt>
      <trkpt lat="45.9927" lon="4.63571">
        <ele>367</ele>
        <time>2017-10-27T00:24:41Z</time>
      </trkpt>
      <trkpt lat="45.99251" lon="4.6356">
        <ele>368</ele>
        <time>2017-10-27T00:26:41Z</time>
      </trkpt>
      <trkpt lat="45.99224" lon="4.63548">
        <ele>369</ele>
        <time>2017-10-27T00:28:41Z</time>
      </trkpt>
      <trkpt lat="45.99202" lon="4.63537">
        <ele>369</ele>
        <time>2017-10-27T00:30:41Z</time>
      </trkpt>
      <trkpt lat="45.99178" lon="4.6353">
        <ele>370</ele>
        <time>2017-10-27T00:32:41Z</time>
      </trkpt>
      <trkpt lat="45.99162" lon="4.63526">
        <ele>371</ele>
        <time>2017-10-27T00:34:41Z</time>
      </trkpt>
      <trkpt lat="45.9915" lon="4.63511">
        <ele>370</ele>
        <time>2017-10-27T00:36:41Z</time>
      </trkpt>
      <trkpt lat="45.99141" lon="4.6347">
        <ele>369</ele>
        <time>2017-10-27T00:38:41Z</time>
      </trkpt>
      <trkpt lat="45.99137" lon="4.63461">
        <ele>369</ele>
        <time>2017-10-27T00:40:41Z</time>
      </trkpt>
      <trkpt lat="45.99097" lon="4.63455">
        <ele>368</ele>
        <time>2017-10-27T00:42:41Z</time>
      </trkpt>
      <trkpt lat="45.99062" lon="4.63463">
        <ele>367</ele>
        <time>2017-10-27T00:44:41Z</time>
      </trkpt>
      <trkpt lat="45.99033" lon="4.63463">
        <ele>365</ele>
        <time>2017-10-27T00:46:41Z</time>
      </trkpt>
      <trkpt lat="45.99023" lon="4.63452">
        <ele>364</ele>
        <time>2017-10-27T00:48:41Z</time>
      </trkpt>
      <trkpt lat="45.99019" lon="4.63428">
        <ele>363</ele>
        <time>2017-10-27T00:50:41Z</time>
      </trkpt>
      <trkpt lat="45.99005" lon="4.63362">
        <ele>360</ele>
        <time>2017-10-27T00:52:41Z</time>
      </trkpt>
      <trkpt lat="45.98997" lon="4.63321">
        <ele>359</ele>
        <time>2017-10-27T00:54:41Z</time>
      </trkpt>
      <trkpt lat="45.98988" lon="4.63267">
        <ele>360</ele>
        <time>2017-10-27T00:56:41Z</time>
      </trkpt>
      <trkpt lat="45.98981" lon="4.63251">
        <ele>360</ele>
        <time>2017-10-27T00:58:41Z</time>
      </trkpt>
      <trkpt lat="45.98946" lon="4.63212">
        <ele>360</ele>
        <time>2017-10-27T01:00:41Z</time>
      </trkpt>
      <trkpt lat="45.98926" lon="4.63201">
        <ele>359</ele>
        <time>2017-10-27T01:02:41Z</time>
      </trkpt>
      <trkpt lat="45.98909" lon="4.63193">
        <ele>358</ele>
        <time>2017-10-27T01:04:41Z</time>
      </trkpt>
      <trkpt lat="45.98873" lon="4.63161">
        <ele>359</ele>
        <time>2017-10-27T01:06:41Z</time>
      </trkpt>
      <trkpt lat="45.98858" lon="4.63147">
        <ele>359</ele>
        <time>2017-10-27T01:08:41Z</time>
      </trkpt>
      <trkpt lat="45.9885" lon="4.63113">
        <ele>359</ele>
        <time>2017-10-27T01:10:41Z</time>
      </trkpt>
      <trkpt lat="45.98809" lon="4.63122">
        <ele>354</ele>
        <time>2017-10-27T01:12:41Z</time>
      </trkpt>
      <trkpt lat="45.98791" lon="4.63128">
        <ele>352</ele>
        <time>2017-10-27T01:14:41Z</time>
      </trkpt>
      <trkpt lat="45.98791" lon="4.631">
        <ele>352</ele>
        <time>2017-10-27T01:16:41Z</time>
      </trkpt>
      <trkpt lat="45.98804" lon="4.63062">
        <ele>352</ele>
        <time>2017-10-27T01:18:41Z</time>
      </trkpt>
      <trkpt lat="45.98833" lon="4.63013">
        <ele>354</ele>
        <time>2017-10-27T01:20:41Z</time>
      </trkpt>
      <trkpt lat="45.98843" lon="4.63004">
        <ele>355</ele>
        <time>2017-10-27T01:22:41Z</time>
      </trkpt>
      <trkpt lat="45.98883" lon="4.62969">
        <ele>361</ele>
        <time>2017-10-27T01:24:41Z</time>
      </trkpt>
      <trkpt lat="45.98892" lon="4.62958">
        <ele>362</ele>
        <time>2017-10-27T01:26:41Z</time>
      </trkpt>
      <trkpt lat="45.98901" lon="4.62925">
        <ele>362</ele>
        <time>2017-10-27T01:28:41Z</time>
      </trkpt>
      <trkpt lat="45.98916" lon="4.62889">
        <ele>363</ele>
        <time>2017-10-27T01:30:41Z</time>
      </trkpt>
      <trkpt lat="45.98926" lon="4.6287">
        <ele>364</ele>
        <time>2017-10-27T01:32:41Z</time>
      </trkpt>
      <trkpt lat="45.98934" lon="4.62846">
        <ele>365</ele>
        <time>2017-10-27T01:34:41Z</time>
      </trkpt>
      <trkpt lat="45.98946" lon="4.62819">
        <ele>365</ele>
        <time>2017-10-27T01:36:41Z</time>
      </trkpt>
      <trkpt lat="45.98958" lon="4.62797">
        <ele>366</ele>
        <time>2017-10-27T01:38:41Z</time>
      </trkpt>
      <trkpt lat="45.98983" lon="4.62743">
        <ele>367</ele>
        <time>2017-10-27T01:40:41Z</time>
      </trkpt>
      <trkpt lat="45.98997" lon="4.62712">
        <ele>367</ele>
        <time>2017-10-27T01:42:41Z</time>
      </trkpt>
      <trkpt lat="45.99028" lon="4.62658">
        <ele>368</ele>
        <time>2017-10-27T01:44:41Z</time>
      </trkpt>
      <trkpt lat="45.99033" lon="4.62644">
        <ele>368</ele>
        <time>2017-10-27T01:46:41Z</time>
      </trkpt>
      <trkpt lat="45.99028" lon="4.62601">
        <ele>367</ele>
        <time>2017-10-27T01:48:41Z</time>
      </trkpt>
      <trkpt lat="45.99014" lon="4.62516">
        <ele>369</ele>
        <time>2017-10-27T01:50:41Z</time>
      </trkpt>
      <trkpt lat="45.99015" lon="4.62496">
        <ele>371</ele>
        <time>2017-10-27T01:52:41Z</time>
      </trkpt>
      <trkpt lat="45.9902" lon="4.62456">
        <ele>374</ele>
        <time>2017-10-27T01:54:41Z</time>
      </trkpt>
      <trkpt lat="45.99023" lon="4.62422">
        <ele>376</ele>
        <time>2017-10-27T01:56:41Z</time>
      </trkpt>
      <trkpt lat="45.99025" lon="4.62364">
        <ele>376</ele>
        <time>2017-10-27T01:58:41Z</time>
      </trkpt>
      <trkpt lat="45.99025" lon="4.62325">
        <ele>376</ele>
        <time>2017-10-27T02:00:41Z</time>
      </trkpt>
      <trkpt lat="45.99031" lon="4.62262">
        <ele>378</ele>
        <time>2017-10-27T02:02:41Z</time>
      </trkpt>
      <trkpt lat="45.99039" lon="4.62177">
        <ele>385</ele>
        <time>2017-10-27T02:04:41Z</time>
      </trkpt>
      <trkpt lat="45.99044" lon="4.62133">
        <ele>390</ele>
        <time>2017-10-27T02:06:41Z</time>
      </trkpt>
      <trkpt lat="45.99053" lon="4.62093">
        <ele>394</ele>
        <time>2017-10-27T02:08:41Z</time>
      </trkpt>
      <trkpt lat="45.99055" lon="4.62078">
        <ele>396</ele>
        <time>2017-10-27T02:10:41Z</time>
      </trkpt>
      <trkpt lat="45.99062" lon="4.62047">
        <ele>400</ele>
        <time>2017-10-27T02:12:41Z</time>
      </trkpt>
      <trkpt lat="45.99061" lon="4.62018">
        <ele>404</ele>
        <time>2017-10-27T02:14:41Z</time>
      </trkpt>
      <trkpt lat="45.99057" lon="4.61971">
        <ele>410</ele>
        <time>2017-10-27T02:16:41Z</time>
      </trkpt>
      <trkpt lat="45.99064" lon="4.61907">
        <ele>417</ele>
        <time>2017-10-27T02:18:41Z</time>
      </trkpt>
      <trkpt lat="45.99062" lon="4.6188">
        <ele>420</ele>
        <time>2017-10-27T02:20:41Z</time>
      </trkpt>
      <trkpt lat="45.99049" lon="4.61819">
        <ele>427</ele>
        <time>2017-10-27T02:22:41Z</time>
      </trkpt>
      <trkpt lat="45.99041" lon="4.6178">
        <ele>429</ele>
        <time>2017-10-27T02:24:41Z</time>
      </trkpt>
      <trkpt lat="45.99033" lon="4.61747">
        <ele>431</ele>
        <time>2017-10-27T02:26:41Z</time>
      </trkpt>
      <trkpt lat="45.99023" lon="4.61698">
        <ele>433</ele>
        <time>2017-10-27T02:28:41Z</time>
      </trkpt>
      <trkpt lat="45.99006" lon="4.61632">
        <ele>436</ele>
        <time>2017-10-27T02:30:41Z</time>
      </trkpt>
      <trkpt lat="45.99" lon="4.61589">
        <ele>438</ele>
        <time>2017-10-27T02:32:41Z</time>
      </trkpt>
      <trkpt lat="45.98998" lon="4.61544">
        <ele>441</ele>
        <time>2017-10-27T02:34:41Z</time>
      </trkpt>
      <trkpt lat="45.98996" lon="4.61513">
        <ele>443</ele>
        <time>2017-10-27T02:36:41Z</time>
      </trkpt>
      <trkpt lat="45.98998" lon="4.61486">
        <ele>446</ele>
        <time>2017-10-27T02:38:41Z</time>
      </trkpt>
      <trkpt lat="45.98983" lon="4.61498">
        <ele>445</ele>
        <time>2017-10-27T02:40:41Z</time>
      </trkpt>
      <trkpt lat="45.98939" lon="4.61512">
        <ele>447</ele>
        <time>2017-10-27T02:42:41Z</time>
      </trkpt>
      <trkpt lat="45.98924" lon="4.61509">
        <ele>448</ele>
        <time>2017-10-27T02:44:41Z</time>
      </trkpt>
      <trkpt lat="45.98894" lon="4.61499">
        <ele>449</ele>
        <time>2017-10-27T02:46:41Z</time>
      </trkpt>
      <trkpt lat="45.9887" lon="4.61481">
        <ele>450</ele>
        <time>2017-10-27T02:48:41Z</time>
      </trkpt>
      <trkpt lat="45.9883" lon="4.61448">
        <ele>449</ele>
        <time>2017-10-27T02:50:41Z</time>
      </trkpt>
      <trkpt lat="45.98811" lon="4.61426">
        <ele>447</ele>
        <time>2017-10-27T02:52:41Z</time>
      </trkpt>
      <trkpt lat="45.98789" lon="4.61399">
        <ele>445</ele>
        <time>2017-10-27T02:54:41Z</time>
      </trkpt>
      <trkpt lat="45.98753" lon="4.61363">
        <ele>443</ele>
        <time>2017-10-27T02:56:41Z</time>
      </trkpt>
      <trkpt lat="45.9873" lon="4.61332">
        <ele>441</ele>
        <time>2017-10-27T02:58:41Z</time>
      </trkpt>
      <trkpt lat="45.98697" lon="4.61289">
        <ele>439</ele>
        <time>2017-10-27T03:00:41Z</time>
      </trkpt>
      <trkpt lat="45.98683" lon="4.61266">
        <ele>438</ele>
        <time>2017-10-27T03:02:41Z</time>
      </trkpt>
      <trkpt lat="45.98673" lon="4.61248">
        <ele>438</ele>
        <time>2017-10-27T03:04:41Z</time>
      </trkpt>
      <trkpt lat="45.98664" lon="4.61234">
        <ele>438</ele>
        <time>2017-10-27T03:06:41Z</time>
      </trkpt>
      <trkpt lat="45.98618" lon="4.61193">
        <ele>435</ele>
        <time>2017-10-27T03:08:41Z</time>
      </trkpt>
      <trkpt lat="45.9859" lon="4.61154">
        <ele>435</ele>
        <time>2017-10-27T03:10:41Z</time>
      </trkpt>
      <trkpt lat="45.98561" lon="4.61126">
        <ele>434</ele>
        <time>2017-10-27T03:12:41Z</time>
      </trkpt>
      <trkpt lat="45.98544" lon="4.61109">
        <ele>434</ele>
        <time>2017-10-27T03:14:41Z</time>
      </trkpt>
      <trkpt lat="45.98523" lon="4.61092">
        <ele>433</ele>
        <time>2017-10-27T03:16:41Z</time>
      </trkpt>
      <trkpt lat="45.98498" lon="4.61071">
        <ele>432</ele>
        <time>2017-10-27T03:18:41Z</time>
      </trkpt>
      <trkpt lat="45.98483" lon="4.61056">
        <ele>432</ele>
        <time>2017-10-27T03:20:41Z</time>
      </trkpt>
      <trkpt lat="45.98456" lon="4.61039">
        <ele>430</ele>
        <time>2017-10-27T03:22:41Z</time>
      </trkpt>
      <trkpt lat="45.98437" lon="4.61023">
        <ele>429</ele>
        <time>2017-10-27T03:24:41Z</time>
      </trkpt>
      <trkpt lat="45.98421" lon="4.61028">
        <ele>427</ele>
        <time>2017-10-27T03:26:41Z</time>
      </trkpt>
      <trkpt lat="45.9838" lon="4.61048">
        <ele>422</ele>
        <time>2017-10-27T03:28:41Z</time>
      </trkpt>
      <trkpt lat="45.98357" lon="4.61061">
        <ele>419</ele>
        <time>2017-10-27T03:30:41Z</time>
      </trkpt>
      <trkpt lat="45.98286" lon="4.61104">
        <ele>409</ele>
        <time>2017-10-27T03:32:41Z</time>
      </trkpt>
      <trkpt lat="45.98231" lon="4.61139">
        <ele>401</ele>
        <time>2017-10-27T03:34:41Z</time>
      </trkpt>
      <trkpt lat="45.98195" lon="4.61165">
        <ele>397</ele>
        <time>2017-10-27T03:36:41Z</time>
      </trkpt>
      <trkpt lat="45.98177" lon="4.61186">
        <ele>393</ele>
        <time>2017-10-27T03:38:41Z</time>
      </trkpt>
      <trkpt lat="45.98167" lon="4.61205">
        <ele>390</ele>
        <time>2017-10-27T03:40:41Z</time>
      </trkpt>
      <trkpt lat="45.98154" lon="4.6122">
        <ele>387</ele>
        <time>2017-10-27T03:42:41Z</time>
      </trkpt>
      <trkpt lat="45.98134" lon="4.61236">
        <ele>383</ele>
        <time>2017-10-27T03:44:41Z</time>
      </trkpt>
      <trkpt lat="45.98065" lon="4.61279">
        <ele>370</ele>
        <time>2017-10-27T03:46:41Z</time>
      </trkpt>
      <trkpt lat="45.98067" lon="4.61291">
        <ele>370</ele>
        <time>2017-10-27T03:48:41Z</time>
      </trkpt>
      <trkpt lat="45.98056" lon="4.61315">
        <ele>366</ele>
        <time>2017-10-27T03:50:41Z</time>
      </trkpt>
      <trkpt lat="45.98032" lon="4.61324">
        <ele>363</ele>
        <time>2017-10-27T03:52:41Z</time>
      </trkpt>
      <trkpt lat="45.98006" lon="4.61309">
        <ele>362</ele>
        <time>2017-10-27T03:54:41Z</time>
      </trkpt>
      <trkpt lat="45.97994" lon="4.6129">
        <ele>360</ele>
        <time>2017-10-27T03:56:41Z</time>
      </trkpt>
      <trkpt lat="45.97985" lon="4.61259">
        <ele>358</ele>
        <time>2017-10-27T03:58:41Z</time>
      </trkpt>
      <trkpt lat="45.9798" lon="4.61237">
        <ele>358</ele>
        <time>2017-10-27T04:00:41Z</time>
      </trkpt>
      <trkpt lat="45.97977" lon="4.61187">
        <ele>360</ele>
        <time>2017-10-27T04:02:41Z</time>
      </trkpt>
      <trkpt lat="45.97981" lon="4.61141">
        <ele>363</ele>
        <time>2017-10-27T04:04:41Z</time>
      </trkpt>
      <trkpt lat="45.97988" lon="4.61102">
        <ele>366</ele>
        <time>2017-10-27T04:06:41Z</time>
      </trkpt>
      <trkpt lat="45.97993" lon="4.61082">
        <ele>368</ele>
        <time>2017-10-27T04:08:41Z</time>
      </trkpt>
      <trkpt lat="45.97998" lon="4.61065">
        <ele>369</ele>
        <time>2017-10-27T04:10:41Z</time>
      </trkpt>
      <trkpt lat="45.98011" lon="4.61045">
        <ele>372</ele>
        <time>2017-10-27T04:12:41Z</time>
      </trkpt>
      <trkpt lat="45.98019" lon="4.61029">
        <ele>374</ele>
        <time>2017-10-27T04:14:41Z</time>
      </trkpt>
      <trkpt lat="45.9804" lon="4.6101">
        <ele>380</ele>
        <time>2017-10-27T04:16:41Z</time>
      </trkpt>
      <trkpt lat="45.98053" lon="4.60932">
        <ele>374</ele>
        <time>2017-10-27T04:18:41Z</time>
      </trkpt>
      <trkpt lat="45.98064" lon="4.60852">
        <ele>373</ele>
        <time>2017-10-27T04:20:41Z</time>
      </trkpt>
      <trkpt lat="45.98052" lon="4.60832">
        <ele>371</ele>
        <time>2017-10-27T04:22:41Z</time>
      </trkpt>
      <trkpt lat="45.98035" lon="4.60826">
        <ele>368</ele>
        <time>2017-10-27T04:24:41Z</time>
      </trkpt>
      <trkpt lat="45.98012" lon="4.60823">
        <ele>365</ele>
        <time>2017-10-27T04:26:41Z</time>
      </trkpt>
      <trkpt lat="45.98" lon="4.60813">
        <ele>363</ele>
        <time>2017-10-27T04:28:41Z</time>
      </trkpt>
      <trkpt lat="45.97989" lon="4.60795">
        <ele>361</ele>
        <time>2017-10-27T04:30:41Z</time>
      </trkpt>
      <trkpt lat="45.97981" lon="4.60806">
        <ele>359</ele>
        <time>2017-10-27T04:32:41Z</time>
      </trkpt>
      <trkpt lat="45.97975" lon="4.60842">
        <ele>357</ele>
        <time>2017-10-27T04:34:41Z</time>
      </trkpt>
      <trkpt lat="45.97968" lon="4.60882">
        <ele>355</ele>
        <time>2017-10-27T04:36:41Z</time>
      </trkpt>
      <trkpt lat="45.97959" lon="4.60903">
        <ele>353</ele>
        <time>2017-10-27T04:38:41Z</time>
      </trkpt>
      <trkpt lat="45.97944" lon="4.60922">
        <ele>350</ele>
        <time>2017-10-27T04:40:41Z</time>
      </trkpt>
      <trkpt lat="45.97927" lon="4.60935">
        <ele>347</ele>
        <time>2017-10-27T04:42:41Z</time>
      </trkpt>
      <trkpt lat="45.97913" lon="4.60947">
        <ele>345</ele>
        <time>2017-10-27T04:44:41Z</time>
      </trkpt>
      <trkpt lat="45.97902" lon="4.60952">
        <ele>343</ele>
        <time>2017-10-27T04:46:41Z</time>
      </trkpt>
      <trkpt lat="45.97887" lon="4.6095">
        <ele>341</ele>
        <time>2017-10-27T04:48:41Z</time>
      </trkpt>
      <trkpt lat="45.97883" lon="4.60935">
        <ele>339</ele>
        <time>2017-10-27T04:50:41Z</time>
      </trkpt>
      <trkpt lat="45.97877" lon="4.609">
        <ele>338</ele>
        <time>2017-10-27T04:52:41Z</time>
      </trkpt>
      <trkpt lat="45.97854" lon="4.60873">
        <ele>335</ele>
        <time>2017-10-27T04:54:41Z</time>
      </trkpt>
      <trkpt lat="45.97859" lon="4.60838">
        <ele>336</ele>
        <time>2017-10-27T04:56:41Z</time>
      </trkpt>
      <trkpt lat="45.97863" lon="4.608">
        <ele>338</ele>
        <time>2017-10-27T04:58:41Z</time>
      </trkpt>
      <trkpt lat="45.97852" lon="4.60787">
        <ele>337</ele>
        <time>2017-10-27T05:00:41Z</time>
      </trkpt>
      <trkpt lat="45.97832" lon="4.6079">
        <ele>335</ele>
        <time>2017-10-27T05:02:41Z</time>
      </trkpt>
      <trkpt lat="45.97816" lon="4.60804">
        <ele>337</ele>
        <time>2017-10-27T05:04:41Z</time>
      </trkpt>
      <trkpt lat="45.97798" lon="4.60822">
        <ele>339</ele>
        <time>2017-10-27T05:06:41Z</time>
      </trkpt>
      <trkpt lat="45.97782" lon="4.60826">
        <ele>341</ele>
        <time>2017-10-27T05:08:41Z</time>
      </trkpt>
      <trkpt lat="45.97769" lon="4.60834">
        <ele>341</ele>
        <time>2017-10-27T05:10:41Z</time>
      </trkpt>
      <trkpt lat="45.97739" lon="4.60857">
        <ele>344</ele>
        <time>2017-10-27T05:12:41Z</time>
      </trkpt>
      <trkpt lat="45.97734" lon="4.60881">
        <ele>344</ele>
        <time>2017-10-27T05:14:41Z</time>
      </trkpt>
      <trkpt lat="45.97729" lon="4.60894">
        <ele>344</ele>
        <time>2017-10-27T05:16:41Z</time>
      </trkpt>
      <trkpt lat="45.97709" lon="4.60915">
        <ele>345</ele>
        <time>2017-10-27T05:18:41Z</time>
      </trkpt>
      <trkpt lat="45.97682" lon="4.60936">
        <ele>349</ele>
        <time>2017-10-27T05:20:41Z</time>
      </trkpt>
      <trkpt lat="45.97653" lon="4.60955">
        <ele>353</ele>
        <time>2017-10-27T05:22:41Z</time>
      </trkpt>
      <trkpt lat="45.97645" lon="4.60965">
        <ele>355</ele>
        <time>2017-10-27T05:24:41Z</time>
      </trkpt>
      <trkpt lat="45.97638" lon="4.61">
        <ele>356</ele>
        <time>2017-10-27T05:26:41Z</time>
      </trkpt>
      <trkpt lat="45.97636" lon="4.6101">
        <ele>357</ele>
        <time>2017-10-27T05:28:41Z</time>
      </trkpt>
      <trkpt lat="45.97602" lon="4.61104">
        <ele>361</ele>
        <time>2017-10-27T05:30:41Z</time>
      </trkpt>
      <trkpt lat="45.9759" lon="4.61124">
        <ele>363</ele>
        <time>2017-10-27T05:32:41Z</time>
      </trkpt>
      <trkpt lat="45.97529" lon="4.6115">
        <ele>371</ele>
        <time>2017-10-27T05:34:41Z</time>
      </trkpt>
      <trkpt lat="45.97497" lon="4.61163">
        <ele>375</ele>
        <time>2017-10-27T05:36:41Z</time>
      </trkpt>
      <trkpt lat="45.97484" lon="4.61159">
        <ele>377</ele>
        <time>2017-10-27T05:38:41Z</time>
      </trkpt>
      <trkpt lat="45.97456" lon="4.61151">
        <ele>382</ele>
        <time>2017-10-27T05:40:41Z</time>
      </trkpt>
      <trkpt lat="45.97434" lon="4.61147">
        <ele>386</ele>
        <time>2017-10-27T05:42:41Z</time>
      </trkpt>
      <trkpt lat="45.97415" lon="4.61152">
        <ele>388</ele>
        <time>2017-10-27T05:44:41Z</time>
      </trkpt>
      <trkpt lat="45.97405" lon="4.61166">
        <ele>390</ele>
        <time>2017-10-27T05:46:41Z</time>
      </trkpt>
      <trkpt lat="45.97397" lon="4.61182">
        <ele>392</ele>
        <time>2017-10-27T05:48:41Z</time>
      </trkpt>
      <trkpt lat="45.97395" lon="4.61217">
        <ele>393</ele>
        <time>2017-10-27T05:50:41Z</time>
      </trkpt>
      <trkpt lat="45.97387" lon="4.61206">
        <ele>394</ele>
        <time>2017-10-27T05:52:41Z</time>
      </trkpt>
      <trkpt lat="45.97382" lon="4.61182">
        <ele>395</ele>
        <time>2017-10-27T05:54:41Z</time>
      </trkpt>
      <trkpt lat="45.97358" lon="4.61187">
        <ele>400</ele>
        <time>2017-10-27T05:56:41Z</time>
      </trkpt>
      <trkpt lat="45.97342" lon="4.61186">
        <ele>403</ele>
        <time>2017-10-27T05:58:41Z</time>
      </trkpt>
      <trkpt lat="45.97317" lon="4.61178">
        <ele>405</ele>
        <time>2017-10-27T06:00:41Z</time>
      </trkpt>
      <trkpt lat="45.9729" lon="4.61177">
        <ele>404</ele>
        <time>2017-10-27T06:02:41Z</time>
      </trkpt>
      <trkpt lat="45.9727" lon="4.61179">
        <ele>404</ele>
        <time>2017-10-27T06:04:41Z</time>
      </trkpt>
      <trkpt lat="45.972" lon="4.61088">
        <ele>402</ele>
        <time>2017-10-27T06:06:41Z</time>
      </trkpt>
      <trkpt lat="45.97169" lon="4.61022">
        <ele>398</ele>
        <time>2017-10-27T06:08:41Z</time>
      </trkpt>
      <trkpt lat="45.97162" lon="4.61003">
        <ele>397</ele>
        <time>2017-10-27T06:10:41Z</time>
      </trkpt>
      <trkpt lat="45.97143" lon="4.60923">
        <ele>398</ele>
        <time>2017-10-27T06:12:41Z</time>
      </trkpt>
      <trkpt lat="45.9714" lon="4.60844">
        <ele>396</ele>
        <time>2017-10-27T06:14:41Z</time>
      </trkpt>
      <trkpt lat="45.97152" lon="4.60786">
        <ele>394</ele>
        <time>2017-10-27T06:16:41Z</time>
      </trkpt>
      <trkpt lat="45.9717" lon="4.60733">
        <ele>391</ele>
        <time>2017-10-27T06:18:41Z</time>
      </trkpt>
      <trkpt lat="45.97177" lon="4.60714">
        <ele>392</ele>
        <time>2017-10-27T06:20:41Z</time>
      </trkpt>
      <trkpt lat="45.97179" lon="4.60693">
        <ele>392</ele>
        <time>2017-10-27T06:22:41Z</time>
      </trkpt>
      <trkpt lat="45.97213" lon="4.6062">
        <ele>394</ele>
        <time>2017-10-27T06:24:41Z</time>
      </trkpt>
      <trkpt lat="45.9723" lon="4.60595">
        <ele>394</ele>
        <time>2017-10-27T06:26:41Z</time>
      </trkpt>
      <trkpt lat="45.97265" lon="4.6058">
        <ele>395</ele>
        <time>2017-10-27T06:28:41Z</time>
      </trkpt>
      <trkpt lat="45.97319" lon="4.60563">
        <ele>398</ele>
        <time>2017-10-27T06:30:41Z</time>
      </trkpt>
      <trkpt lat="45.97349" lon="4.6056">
        <ele>399</ele>
        <time>2017-10-27T06:32:41Z</time>
      </trkpt>
      <trkpt lat="45.97364" lon="4.60559">
        <ele>399</ele>
        <time>2017-10-27T06:34:41Z</time>
      </trkpt>
      <trkpt lat="45.97342" lon="4.60537">
        <ele>399</ele>
        <time>2017-10-27T06:36:41Z</time>
      </trkpt>
      <trkpt lat="45.97323" lon="4.60522">
        <ele>398</ele>
        <time>2017-10-27T06:38:41Z</time>
      </trkpt>
      <trkpt lat="45.97297" lon="4.60498">
        <ele>398</ele>
        <time>2017-10-27T06:40:41Z</time>
      </trkpt>
      <trkpt lat="45.9726" lon="4.60462">
        <ele>400</ele>
        <time>2017-10-27T06:42:41Z</time>
      </trkpt>
      <trkpt lat="45.97238" lon="4.60439">
        <ele>401</ele>
        <time>2017-10-27T06:44:41Z</time>
      </trkpt>
      <trkpt lat="45.97221" lon="4.6042">
        <ele>403</ele>
        <time>2017-10-27T06:46:41Z</time>
      </trkpt>
      <trkpt lat="45.97204" lon="4.60408">
        <ele>404</ele>
        <time>2017-10-27T06:48:41Z</time>
      </trkpt>
      <trkpt lat="45.97186" lon="4.60407">
        <ele>404</ele>
        <time>2017-10-27T06:50:41Z</time>
      </trkpt>
      <trkpt lat="45.97179" lon="4.60409">
        <ele>404</ele>
        <time>2017-10-27T06:52:41Z</time>
      </trkpt>
      <trkpt lat="45.97171" lon="4.60404">
        <ele>404</ele>
        <time>2017-10-27T06:54:41Z</time>
      </trkpt>
      <trkpt lat="45.97151" lon="4.60399">
        <ele>406</ele>
        <time>2017-10-27T06:56:41Z</time>
      </trkpt>
      <trkpt lat="45.97127" lon="4.60391">
        <ele>409</ele>
        <time>2017-10-27T06:58:41Z</time>
      </trkpt>
      <trkpt lat="45.97106" lon="4.60392">
        <ele>411</ele>
        <time>2017-10-27T07:00:41Z</time>
      </trkpt>
      <trkpt lat="45.97083" lon="4.6039">
        <ele>414</ele>
        <time>2017-10-27T07:02:41Z</time>
      </trkpt>
      <trkpt lat="45.97062" lon="4.60375">
        <ele>416</ele>
        <time>2017-10-27T07:04:41Z</time>
      </trkpt>
      <trkpt lat="45.97043" lon="4.60395">
        <ele>417</ele>
        <time>2017-10-27T07:06:41Z</time>
      </trkpt>
      <trkpt lat="45.97013" lon="4.60433">
        <ele>417</ele>
        <time>2017-10-27T07:08:41Z</time>
      </trkpt>
      <trkpt lat="45.97004" lon="4.60439">
        <ele>417</ele>
        <time>2017-10-27T07:10:41Z</time>
      </trkpt>
      <trkpt lat="45.96989" lon="4.60443">
        <ele>419</ele>
        <time>2017-10-27T07:12:41Z</time>
      </trkpt>
      <trkpt lat="45.96895" lon="4.60458">
        <ele>433</ele>
        <time>2017-10-27T07:14:41Z</time>
      </trkpt>
      <trkpt lat="45.96888" lon="4.60464">
        <ele>434</ele>
        <time>2017-10-27T07:16:41Z</time>
      </trkpt>
      <trkpt lat="45.96866" lon="4.60511">
        <ele>433</ele>
        <time>2017-10-27T07:18:41Z</time>
      </trkpt>
      <trkpt lat="45.96841" lon="4.60568">
        <ele>433</ele>
        <time>2017-10-27T07:20:41Z</time>
      </trkpt>
      <trkpt lat="45.96815" lon="4.60612">
        <ele>433</ele>
        <time>2017-10-27T07:22:41Z</time>
      </trkpt>
      <trkpt lat="45.96775" lon="4.60675">
        <ele>432</ele>
        <time>2017-10-27T07:24:41Z</time>
      </trkpt>
      <trkpt lat="45.96756" lon="4.60704">
        <ele>432</ele>
        <time>2017-10-27T07:26:41Z</time>
      </trkpt>
      <trkpt lat="45.96735" lon="4.60743">
        <ele>430</ele>
        <time>2017-10-27T07:28:41Z</time>
      </trkpt>
      <trkpt lat="45.96713" lon="4.60791">
        <ele>431</ele>
        <time>2017-10-27T07:30:41Z</time>
      </trkpt>
      <trkpt lat="45.96708" lon="4.6081">
        <ele>431</ele>
        <time>2017-10-27T07:32:41Z</time>
      </trkpt>
      <trkpt lat="45.9669" lon="4.60836">
        <ele>432</ele>
        <time>2017-10-27T07:34:41Z</time>
      </trkpt>
      <trkpt lat="45.96675" lon="4.60844">
        <ele>432</ele>
        <time>2017-10-27T07:36:41Z</time>
      </trkpt>
      <trkpt lat="45.96653" lon="4.60859">
        <ele>430</ele>
        <time>2017-10-27T07:38:41Z</time>
      </trkpt>
      <trkpt lat="45.96625" lon="4.60879">
        <ele>426</ele>
        <time>2017-10-27T07:40:41Z</time>
      </trkpt>
      <trkpt lat="45.96606" lon="4.60891">
        <ele>423</ele>
        <time>2017-10-27T07:42:41Z</time>
      </trkpt>
      <trkpt lat="45.96586" lon="4.60898">
        <ele>420</ele>
        <time>2017-10-27T07:44:41Z</time>
      </trkpt>
      <trkpt lat="45.96553" lon="4.60898">
        <ele>415</ele>
        <time>2017-10-27T07:46:41Z</time>
      </trkpt>
      <trkpt lat="45.96524" lon="4.60897">
        <ele>411</ele>
        <time>2017-10-27T07:48:41Z</time>
      </trkpt>
      <trkpt lat="45.96502" lon="4.60889">
        <ele>408</ele>
        <time>2017-10-27T07:50:41Z</time>
      </trkpt>
      <trkpt lat="45.96483" lon="4.60873">
        <ele>405</ele>
        <time>2017-10-27T07:52:41Z</time>
      </trkpt>
      <trkpt lat="45.96465" lon="4.60857">
        <ele>403</ele>
        <time>2017-10-27T07:54:41Z</time>
      </trkpt>
      <trkpt lat="45.96437" lon="4.60824">
        <ele>400</ele>
        <time>2017-10-27T07:56:41Z</time>
      </trkpt>
      <trkpt lat="45.9641" lon="4.60801">
        <ele>397</ele>
        <time>2017-10-27T07:58:41Z</time>
      </trkpt>
      <trkpt lat="45.96377" lon="4.60793">
        <ele>396</ele>
        <time>2017-10-27T08:00:41Z</time>
      </trkpt>
      <trkpt lat="45.96344" lon="4.60787">
        <ele>395</ele>
        <time>2017-10-27T08:02:41Z</time>
      </trkpt>
      <trkpt lat="45.96325" lon="4.60785">
        <ele>395</ele>
        <time>2017-10-27T08:04:41Z</time>
      </trkpt>
      <trkpt lat="45.96304" lon="4.60788">
        <ele>398</ele>
        <time>2017-10-27T08:06:41Z</time>
      </trkpt>
      <trkpt lat="45.96284" lon="4.60798">
        <ele>400</ele>
        <time>2017-10-27T08:08:41Z</time>
      </trkpt>
      <trkpt lat="45.96269" lon="4.6081">
        <ele>401</ele>
        <time>2017-10-27T08:10:41Z</time>
      </trkpt>
      <trkpt lat="45.96248" lon="4.60831">
        <ele>402</ele>
        <time>2017-10-27T08:12:41Z</time>
      </trkpt>
      <trkpt lat="45.96237" lon="4.60854">
        <ele>404</ele>
        <time>2017-10-27T08:14:41Z</time>
      </trkpt>
      <trkpt lat="45.96225" lon="4.60884">
        <ele>405</ele>
        <time>2017-10-27T08:16:41Z</time>
      </trkpt>
      <trkpt lat="45.96212" lon="4.60877">
        <ele>407</ele>
        <time>2017-10-27T08:18:41Z</time>
      </trkpt>
      <trkpt lat="45.96204" lon="4.60871">
        <ele>409</ele>
        <time>2017-10-27T08:20:41Z</time>
      </trkpt>
      <trkpt lat="45.96208" lon="4.60878">
        <ele>408</ele>
        <time>2017-10-27T08:22:41Z</time>
      </trkpt>
      <trkpt lat="45.96211" lon="4.60886">
        <ele>407</ele>
        <time>2017-10-27T08:24:41Z</time>
      </trkpt>
      <trkpt lat="45.96215" lon="4.60915">
        <ele>406</ele>
        <time>2017-10-27T08:26:41Z</time>
      </trkpt>
      <trkpt lat="45.96204" lon="4.60928">
        <ele>408</ele>
        <time>2017-10-27T08:28:41Z</time>
      </trkpt>
      <trkpt lat="45.96218" lon="4.61003">
        <ele>406</ele>
        <time>2017-10-27T08:30:41Z</time>
      </trkpt>
      <trkpt lat="45.96214" lon="4.6101">
        <ele>407</ele>
        <time>2017-10-27T08:32:41Z</time>
      </trkpt>
      <trkpt lat="45.96221" lon="4.61072">
        <ele>405</ele>
        <time>2017-10-27T08:34:41Z</time>
      </trkpt>
      <trkpt lat="45.96224" lon="4.61157">
        <ele>404</ele>
        <time>2017-10-27T08:36:41Z</time>
      </trkpt>
      <trkpt lat="45.96229" lon="4.6119">
        <ele>404</ele>
        <time>2017-10-27T08:38:41Z</time>
      </trkpt>
      <trkpt lat="45.96248" lon="4.6128">
        <ele>404</ele>
        <time>2017-10-27T08:40:41Z</time>
      </trkpt>
      <trkpt lat="45.96259" lon="4.61337">
        <ele>405</ele>
        <time>2017-10-27T08:42:41Z</time>
      </trkpt>
      <trkpt lat="45.96269" lon="4.61394">
        <ele>406</ele>
        <time>2017-10-27T08:44:41Z</time>
      </trkpt>
      <trkpt lat="45.96277" lon="4.61442">
        <ele>406</ele>
        <time>2017-10-27T08:46:41Z</time>
      </trkpt>
      <trkpt lat="45.96286" lon="4.61475">
        <ele>405</ele>
        <time>2017-10-27T08:48:41Z</time>
      </trkpt>
      <trkpt lat="45.96298" lon="4.61514">
        <ele>405</ele>
        <time>2017-10-27T08:50:41Z</time>
      </trkpt>
      <trkpt lat="45.9631" lon="4.6156">
        <ele>405</ele>
        <time>2017-10-27T08:52:41Z</time>
      </trkpt>
      <trkpt lat="45.96311" lon="4.61602">
        <ele>407</ele>
        <time>2017-10-27T08:54:41Z</time>
      </trkpt>
      <trkpt lat="45.96316" lon="4.61626">
        <ele>408</ele>
        <time>2017-10-27T08:56:41Z</time>
      </trkpt>
      <trkpt lat="45.96324" lon="4.61662">
        <ele>408</ele>
        <time>2017-10-27T08:58:41Z</time>
      </trkpt>
      <trkpt lat="45.96329" lon="4.61686">
        <ele>407</ele>
        <time>2017-10-27T09:00:41Z</time>
      </trkpt>
      <trkpt lat="45.96326" lon="4.61709">
        <ele>407</ele>
        <time>2017-10-27T09:02:41Z</time>
      </trkpt>
      <trkpt lat="45.96317" lon="4.61745">
        <ele>407</ele>
        <time>2017-10-27T09:04:41Z</time>
      </trkpt>
      <trkpt lat="45.96297" lon="4.61818">
        <ele>401</ele>
        <time>2017-10-27T09:06:41Z</time>
      </trkpt>
      <trkpt lat="45.96291" lon="4.6183">
        <ele>400</ele>
        <time>2017-10-27T09:08:41Z</time>
      </trkpt>
      <trkpt lat="45.9628" lon="4.61846">
        <ele>399</ele>
        <time>2017-10-27T09:10:41Z</time>
      </trkpt>
      <trkpt lat="45.96271" lon="4.61862">
        <ele>398</ele>
        <time>2017-10-27T09:12:41Z</time>
      </trkpt>
      <trkpt lat="45.96272" lon="4.61885">
        <ele>396</ele>
        <time>2017-10-27T09:14:41Z</time>
      </trkpt>
      <trkpt lat="45.96281" lon="4.61919">
        <ele>392</ele>
        <time>2017-10-27T09:16:41Z</time>
      </trkpt>
      <trkpt lat="45.963" lon="4.61979">
        <ele>388</ele>
        <time>2017-10-27T09:18:41Z</time>
      </trkpt>
      <trkpt lat="45.96311" lon="4.62026">
        <ele>385</ele>
        <time>2017-10-27T09:20:41Z</time>
      </trkpt>
      <trkpt lat="45.96332" lon="4.62128">
        <ele>379</ele>
        <time>2017-10-27T09:22:41Z</time>
      </trkpt>
      <trkpt lat="45.96331" lon="4.62143">
        <ele>378</ele>
        <time>2017-10-27T09:24:41Z</time>
      </trkpt>
      <trkpt lat="45.96325" lon="4.62169">
        <ele>377</ele>
        <time>2017-10-27T09:26:41Z</time>
      </trkpt>
      <trkpt lat="45.96294" lon="4.62174">
        <ele>376</ele>
        <time>2017-10-27T09:28:41Z</time>
      </trkpt>
      <trkpt lat="45.96258" lon="4.62177">
        <ele>375</ele>
        <time>2017-10-27T09:30:41Z</time>
      </trkpt>
      <trkpt lat="45.96235" lon="4.62177">
        <ele>375</ele>
        <time>2017-10-27T09:32:41Z</time>
      </trkpt>
      <trkpt lat="45.96197" lon="4.6218">
        <ele>375</ele>
        <time>2017-10-27T09:34:41Z</time>
      </trkpt>
      <trkpt lat="45.96172" lon="4.6218">
        <ele>375</ele>
        <time>2017-10-27T09:36:41Z</time>
      </trkpt>
      <trkpt lat="45.96126" lon="4.62189">
        <ele>374</ele>
        <time>2017-10-27T09:38:41Z</time>
      </trkpt>
      <trkpt lat="45.96103" lon="4.62197">
        <ele>373</ele>
        <time>2017-10-27T09:40:41Z</time>
      </trkpt>
      <trkpt lat="45.96088" lon="4.62208">
        <ele>373</ele>
        <time>2017-10-27T09:42:41Z</time>
      </trkpt>
      <trkpt lat="45.96079" lon="4.62222">
        <ele>372</ele>
        <time>2017-10-27T09:44:41Z</time>
      </trkpt>
      <trkpt lat="45.96061" lon="4.62265">
        <ele>368</ele>
        <time>2017-10-27T09:46:41Z</time>
      </trkpt>
      <trkpt lat="45.96061" lon="4.62303">
        <ele>366</ele>
        <time>2017-10-27T09:48:41Z</time>
      </trkpt>
      <trkpt lat="45.96056" lon="4.62329">
        <ele>365</ele>
        <time>2017-10-27T09:50:41Z</time>
      </trkpt>
      <trkpt lat="45.96047" lon="4.6236">
        <ele>363</ele>
        <time>2017-10-27T09:52:41Z</time>
      </trkpt>
      <trkpt lat="45.96028" lon="4.62402">
        <ele>362</ele>
        <time>2017-10-27T09:54:41Z</time>
      </trkpt>
      <trkpt lat="45.95996" lon="4.62386">
        <ele>362</ele>
        <time>2017-10-27T09:56:41Z</time>
      </trkpt>
      <trkpt lat="45.95968" lon="4.62373">
        <ele>359</ele>
        <time>2017-10-27T09:58:41Z</time>
      </trkpt>
      <trkpt lat="45.95945" lon="4.6236">
        <ele>357</ele>
        <time>2017-10-27T10:00:41Z</time>
      </trkpt>
      <trkpt lat="45.95917" lon="4.62336">
        <ele>354</ele>
        <time>2017-10-27T10:02:41Z</time>
      </trkpt>
      <trkpt lat="45.95889" lon="4.62314">
        <ele>349</ele>
        <time>2017-10-27T10:04:41Z</time>
      </trkpt>
      <trkpt lat="45.95873" lon="4.6229">
        <ele>346</ele>
        <time>2017-10-27T10:06:41Z</time>
      </trkpt>
      <trkpt lat="45.9585" lon="4.62247">
        <ele>340</ele>
        <time>2017-10-27T10:08:41Z</time>
      </trkpt>
      <trkpt lat="45.95843" lon="4.62209">
        <ele>338</ele>
        <time>2017-10-27T10:10:41Z</time>
      </trkpt>
      <trkpt lat="45.95839" lon="4.62159">
        <ele>337</ele>
        <time>2017-10-27T10:12:41Z</time>
      </trkpt>
      <trkpt lat="45.95836" lon="4.62129">
        <ele>336</ele>
        <time>2017-10-27T10:14:41Z</time>
      </trkpt>
      <trkpt lat="45.95831" lon="4.62106">
        <ele>336</ele>
        <time>2017-10-27T10:16:41Z</time>
      </trkpt>
      <trkpt lat="45.95824" lon="4.621">
        <ele>336</ele>
        <time>2017-10-27T10:18:41Z</time>
      </trkpt>
      <trkpt lat="45.95816" lon="4.62109">
        <ele>336</ele>
        <time>2017-10-27T10:20:41Z</time>
      </trkpt>
      <trkpt lat="45.9581" lon="4.62132">
        <ele>335</ele>
        <time>2017-10-27T10:22:41Z</time>
      </trkpt>
      <trkpt lat="45.95801" lon="4.62155">
        <ele>334</ele>
        <time>2017-10-27T10:24:41Z</time>
      </trkpt>
      <trkpt lat="45.95795" lon="4.62165">
        <ele>334</ele>
        <time>2017-10-27T10:26:41Z</time>
      </trkpt>
      <trkpt lat="45.95765" lon="4.62176">
        <ele>332</ele>
        <time>2017-10-27T10:28:41Z</time>
      </trkpt>
      <trkpt lat="45.95735" lon="4.62198">
        <ele>332</ele>
        <time>2017-10-27T10:30:41Z</time>
      </trkpt>
      <trkpt lat="45.95703" lon="4.62228">
        <ele>336</ele>
        <time>2017-10-27T10:32:41Z</time>
      </trkpt>
      <trkpt lat="45.95675" lon="4.62252">
        <ele>339</ele>
        <time>2017-10-27T10:34:41Z</time>
      </trkpt>
      <trkpt lat="45.95648" lon="4.6226">
        <ele>342</ele>
        <time>2017-10-27T10:36:41Z</time>
      </trkpt>
      <trkpt lat="45.9562" lon="4.62265">
        <ele>345</ele>
        <time>2017-10-27T10:38:41Z</time>
      </trkpt>
      <trkpt lat="45.95595" lon="4.6227">
        <ele>347</ele>
        <time>2017-10-27T10:40:41Z</time>
      </trkpt>
      <trkpt lat="45.95577" lon="4.62274">
        <ele>347</ele>
        <time>2017-10-27T10:42:41Z</time>
      </trkpt>
      <trkpt lat="45.95535" lon="4.62276">
        <ele>345</ele>
        <time>2017-10-27T10:44:41Z</time>
      </trkpt>
      <trkpt lat="45.95526" lon="4.62269">
        <ele>345</ele>
        <time>2017-10-27T10:46:41Z</time>
      </trkpt>
      <trkpt lat="45.95512" lon="4.62238">
        <ele>347</ele>
        <time>2017-10-27T10:48:41Z</time>
      </trkpt>
      <trkpt lat="45.95496" lon="4.6222">
        <ele>348</ele>
        <time>2017-10-27T10:50:41Z</time>
      </trkpt>
      <trkpt lat="45.9548" lon="4.62209">
        <ele>350</ele>
        <time>2017-10-27T10:52:41Z</time>
      </trkpt>
      <trkpt lat="45.95466" lon="4.62209">
        <ele>352</ele>
        <time>2017-10-27T10:54:41Z</time>
      </trkpt>
      <trkpt lat="45.95444" lon="4.62213">
        <ele>353</ele>
        <time>2017-10-27T10:56:41Z</time>
      </trkpt>
      <trkpt lat="45.95411" lon="4.6221">
        <ele>356</ele>
        <time>2017-10-27T10:58:41Z</time>
      </trkpt>
      <trkpt lat="45.95404" lon="4.62204">
        <ele>358</ele>
        <time>2017-10-27T11:00:41Z</time>
      </trkpt>
      <trkpt lat="45.95386" lon="4.62173">
        <ele>364</ele>
        <time>2017-10-27T11:02:41Z</time>
      </trkpt>
      <trkpt lat="45.95372" lon="4.62145">
        <ele>367</ele>
        <time>2017-10-27T11:04:41Z</time>
      </trkpt>
      <trkpt lat="45.95358" lon="4.62136">
        <ele>370</ele>
        <time>2017-10-27T11:06:41Z</time>
      </trkpt>
      <trkpt lat="45.95337" lon="4.62145">
        <ele>373</ele>
        <time>2017-10-27T11:08:41Z</time>
      </trkpt>
      <trkpt lat="45.95313" lon="4.62169">
        <ele>374</ele>
        <time>2017-10-27T11:10:41Z</time>
      </trkpt>
      <trkpt lat="45.95284" lon="4.62199">
        <ele>374</ele>
        <time>2017-10-27T11:12:41Z</time>
      </trkpt>
      <trkpt lat="45.9526" lon="4.62226">
        <ele>374</ele>
        <time>2017-10-27T11:14:41Z</time>
      </trkpt>
      <trkpt lat="45.95237" lon="4.62257">
        <ele>373</ele>
        <time>2017-10-27T11:16:41Z</time>
      </trkpt>
      <trkpt lat="45.95209" lon="4.62292">
        <ele>370</ele>
        <time>2017-10-27T11:18:41Z</time>
      </trkpt>
      <trkpt lat="45.95186" lon="4.62296">
        <ele>370</ele>
        <time>2017-10-27T11:20:41Z</time>
      </trkpt>
      <trkpt lat="45.95159" lon="4.62296">
        <ele>370</ele>
        <time>2017-10-27T11:22:41Z</time>
      </trkpt>
      <trkpt lat="45.95123" lon="4.62299">
        <ele>370</ele>
        <time>2017-10-27T11:24:41Z</time>
      </trkpt>
      <trkpt lat="45.9509" lon="4.62299">
        <ele>371</ele>
        <time>2017-10-27T11:26:41Z</time>
      </trkpt>
      <trkpt lat="45.95054" lon="4.62299">
        <ele>371</ele>
        <time>2017-10-27T11:28:41Z</time>
      </trkpt>
      <trkpt lat="45.95027" lon="4.62294">
        <ele>372</ele>
        <time>2017-10-27T11:30:41Z</time>
      </trkpt>
      <trkpt lat="45.94992" lon="4.62287">
        <ele>373</ele>
        <time>2017-10-27T11:32:41Z</time>
      </trkpt>
      <trkpt lat="45.94936" lon="4.62275">
        <ele>375</ele>
        <time>2017-10-27T11:34:41Z</time>
      </trkpt>
      <trkpt lat="45.94926" lon="4.62277">
        <ele>375</ele>
        <time>2017-10-27T11:36:41Z</time>
      </trkpt>
      <trkpt lat="45.94848" lon="4.623">
        <ele>372</ele>
        <time>2017-10-27T11:38:41Z</time>
      </trkpt>
      <trkpt lat="45.94832" lon="4.62306">
        <ele>371</ele>
        <time>2017-10-27T11:40:41Z</time>
      </trkpt>
      <trkpt lat="45.94804" lon="4.62308">
        <ele>372</ele>
        <time>2017-10-27T11:42:41Z</time>
      </trkpt>
      <trkpt lat="45.94776" lon="4.62302">
        <ele>372</ele>
        <time>2017-10-27T11:44:41Z</time>
      </trkpt>
      <trkpt lat="45.94744" lon="4.62287">
        <ele>374</ele>
        <time>2017-10-27T11:46:41Z</time>
      </trkpt>
      <trkpt lat="45.94713" lon="4.62282">
        <ele>377</ele>
        <time>2017-10-27T11:48:41Z</time>
      </trkpt>
      <trkpt lat="45.94689" lon="4.62278">
        <ele>379</ele>
        <time>2017-10-27T11:50:41Z</time>
      </trkpt>
      <trkpt lat="45.94659" lon="4.62275">
        <ele>383</ele>
        <time>2017-10-27T11:52:41Z</time>
      </trkpt>
      <trkpt lat="45.94637" lon="4.62268">
        <ele>385</ele>
        <time>2017-10-27T11:54:41Z</time>
      </trkpt>
      <trkpt lat="45.94618" lon="4.62259">
        <ele>387</ele>
        <time>2017-10-27T11:56:41Z</time>
      </trkpt>
      <trkpt lat="45.94587" lon="4.62254">
        <ele>391</ele>
        <time>2017-10-27T11:58:41Z</time>
      </trkpt>
      <trkpt lat="45.94554" lon="4.62248">
        <ele>395</ele>
        <time>2017-10-27T12:00:41Z</time>
      </trkpt>
      <trkpt lat="45.94522" lon="4.6224">
        <ele>399</ele>
        <time>2017-10-27T12:02:41Z</time>
      </trkpt>
      <trkpt lat="45.94474" lon="4.62263">
        <ele>401</ele>
        <time>2017-10-27T12:04:41Z</time>
      </trkpt>
      <trkpt lat="45.94466" lon="4.62261">
        <ele>401</ele>
        <time>2017-10-27T12:06:41Z</time>
      </trkpt>
      <trkpt lat="45.94451" lon="4.62253">
        <ele>401</ele>
        <time>2017-10-27T12:08:41Z</time>
      </trkpt>
      <trkpt lat="45.94417" lon="4.6224">
        <ele>402</ele>
        <time>2017-10-27T12:10:41Z</time>
      </trkpt>
      <trkpt lat="45.94376" lon="4.62209">
        <ele>403</ele>
        <time>2017-10-27T12:12:41Z</time>
      </trkpt>
      <trkpt lat="45.94342" lon="4.62184">
        <ele>406</ele>
        <time>2017-10-27T12:14:41Z</time>
      </trkpt>
      <trkpt lat="45.94332" lon="4.62177">
        <ele>407</ele>
        <time>2017-10-27T12:16:41Z</time>
      </trkpt>
      <trkpt lat="45.9429" lon="4.62194">
        <ele>404</ele>
        <time>2017-10-27T12:18:41Z</time>
      </trkpt>
      <trkpt lat="45.94246" lon="4.622">
        <ele>402</ele>
        <time>2017-10-27T12:20:41Z</time>
      </trkpt>
      <trkpt lat="45.94213" lon="4.62197">
        <ele>401</ele>
        <time>2017-10-27T12:22:41Z</time>
      </trkpt>
      <trkpt lat="45.94164" lon="4.62174">
        <ele>402</ele>
        <time>2017-10-27T12:24:41Z</time>
      </trkpt>
      <trkpt lat="45.94126" lon="4.62158">
        <ele>403</ele>
        <time>2017-10-27T12:26:41Z</time>
      </trkpt>
      <trkpt lat="45.9409" lon="4.62152">
        <ele>402</ele>
        <time>2017-10-27T12:28:41Z</time>
      </trkpt>
      <trkpt lat="45.94065" lon="4.62155">
        <ele>401</ele>
        <time>2017-10-27T12:30:41Z</time>
      </trkpt>
      <trkpt lat="45.94001" lon="4.6218">
        <ele>395</ele>
        <time>2017-10-27T12:32:41Z</time>
      </trkpt>
      <trkpt lat="45.94005" lon="4.62169">
        <ele>397</ele>
        <time>2017-10-27T12:34:41Z</time>
      </trkpt>
      <trkpt lat="45.93999" lon="4.62107">
        <ele>408</ele>
        <time>2017-10-27T12:36:41Z</time>
      </trkpt>
      <trkpt lat="45.93981" lon="4.62064">
        <ele>414</ele>
        <time>2017-10-27T12:38:41Z</time>
      </trkpt>
      <trkpt lat="45.93958" lon="4.62027">
        <ele>417</ele>
        <time>2017-10-27T12:40:41Z</time>
      </trkpt>
      <trkpt lat="45.93932" lon="4.62002">
        <ele>418</ele>
        <time>2017-10-27T12:42:41Z</time>
      </trkpt>
      <trkpt lat="45.93927" lon="4.61978">
        <ele>421</ele>
        <time>2017-10-27T12:44:41Z</time>
      </trkpt>
      <trkpt lat="45.93925" lon="4.61939">
        <ele>427</ele>
        <time>2017-10-27T12:46:41Z</time>
      </trkpt>
      <trkpt lat="45.93912" lon="4.61895">
        <ele>433</ele>
        <time>2017-10-27T12:48:41Z</time>
      </trkpt>
      <trkpt lat="45.93905" lon="4.61825">
        <ele>442</ele>
        <time>2017-10-27T12:50:41Z</time>
      </trkpt>
      <trkpt lat="45.93907" lon="4.61788">
        <ele>445</ele>
        <time>2017-10-27T12:52:41Z</time>
      </trkpt>
      <trkpt lat="45.93916" lon="4.61756">
        <ele>448</ele>
        <time>2017-10-27T12:54:41Z</time>
      </trkpt>
      <trkpt lat="45.93923" lon="4.61711">
        <ele>451</ele>
        <time>2017-10-27T12:56:41Z</time>
      </trkpt>
      <trkpt lat="45.9393" lon="4.6168">
        <ele>453</ele>
        <time>2017-10-27T12:58:41Z</time>
      </trkpt>
      <trkpt lat="45.93945" lon="4.61648">
        <ele>455</ele>
        <time>2017-10-27T13:00:41Z</time>
      </trkpt>
      <trkpt lat="45.93958" lon="4.61629">
        <ele>456</ele>
        <time>2017-10-27T13:02:41Z</time>
      </trkpt>
      <trkpt lat="45.93926" lon="4.61582">
        <ele>449</ele>
        <time>2017-10-27T13:04:41Z</time>
      </trkpt>
      <trkpt lat="45.93921" lon="4.61603">
        <ele>449</ele>
        <time>2017-10-27T13:06:41Z</time>
      </trkpt>
      <trkpt lat="45.9391" lon="4.61593">
        <ele>447</ele>
        <time>2017-10-27T13:08:41Z</time>
      </trkpt>
      <trkpt lat="45.93912" lon="4.61571">
        <ele>447</ele>
        <time>2017-10-27T13:10:41Z</time>
      </trkpt>
    </trkseg>
  </trk>
</gpx>